<?xml version="1.0" encoding="UTF-8" standalone="no" ?>
<gpx xmlns="http://www.topografix.com/GPX/1/1" xmlns:xsi="http://www.w3.org/2001/XMLSchema-instance" xsi:schemaLocation="http://www.topografix.com/GPX/1/1 http://www.topografix.com/GPX/1/1/gpx.xsd" version="1.1" creator="VisuGPX - https://www.visugpx.com">
  <metadata>
    <name>Col de Montaud &gt; St Quentin-sur-Isère</name>
    <desc><![CDATA[Une descente fort sympathique sur de bons sentiers.]]></desc>
  </metadata>
  <trk>
    <name><![CDATA[Montaud]]></name>
    <trkseg>
      <trkpt lat="45.23917" lon="5.54021">
        <ele>1139.2</ele>
        <time>2011-08-31T07:43:18Z</time>
      </trkpt>
      <trkpt lat="45.23922" lon="5.54019">
        <ele>1139.2</ele>
        <time>2011-08-31T07:43:20Z</time>
      </trkpt>
      <trkpt lat="45.23928" lon="5.54014">
        <ele>1139.1</ele>
        <time>2011-08-31T07:43:22Z</time>
      </trkpt>
      <trkpt lat="45.23934" lon="5.54006">
        <ele>1139.8</ele>
        <time>2011-08-31T07:43:24Z</time>
      </trkpt>
      <trkpt lat="45.2394" lon="5.53999">
        <ele>1140.9</ele>
        <time>2011-08-31T07:43:26Z</time>
      </trkpt>
      <trkpt lat="45.23947" lon="5.53992">
        <ele>1141.7</ele>
        <time>2011-08-31T07:43:28Z</time>
      </trkpt>
      <trkpt lat="45.23953" lon="5.53983">
        <ele>1142.1</ele>
        <time>2011-08-31T07:43:30Z</time>
      </trkpt>
      <trkpt lat="45.23958" lon="5.53977">
        <ele>1141.3</ele>
        <time>2011-08-31T07:43:32Z</time>
      </trkpt>
      <trkpt lat="45.23963" lon="5.53975">
        <ele>1141</ele>
        <time>2011-08-31T07:43:34Z</time>
      </trkpt>
      <trkpt lat="45.23968" lon="5.53973">
        <ele>1139.9</ele>
        <time>2011-08-31T07:43:36Z</time>
      </trkpt>
      <trkpt lat="45.23974" lon="5.53974">
        <ele>1138.9</ele>
        <time>2011-08-31T07:43:38Z</time>
      </trkpt>
      <trkpt lat="45.2398" lon="5.53976">
        <ele>1138.6</ele>
        <time>2011-08-31T07:43:40Z</time>
      </trkpt>
      <trkpt lat="45.23984" lon="5.5398">
        <ele>1138.1</ele>
        <time>2011-08-31T07:43:42Z</time>
      </trkpt>
      <trkpt lat="45.23987" lon="5.53984">
        <ele>1137.9</ele>
        <time>2011-08-31T07:43:44Z</time>
      </trkpt>
      <trkpt lat="45.23992" lon="5.53989">
        <ele>1137.9</ele>
        <time>2011-08-31T07:43:46Z</time>
      </trkpt>
      <trkpt lat="45.23996" lon="5.53993">
        <ele>1137.9</ele>
        <time>2011-08-31T07:43:48Z</time>
      </trkpt>
      <trkpt lat="45.24002" lon="5.53997">
        <ele>1137.7</ele>
        <time>2011-08-31T07:43:50Z</time>
      </trkpt>
      <trkpt lat="45.24009" lon="5.54002">
        <ele>1137.7</ele>
        <time>2011-08-31T07:43:52Z</time>
      </trkpt>
      <trkpt lat="45.24013" lon="5.54004">
        <ele>1137.4</ele>
        <time>2011-08-31T07:43:53Z</time>
      </trkpt>
      <trkpt lat="45.24018" lon="5.54008">
        <ele>1137.2</ele>
        <time>2011-08-31T07:43:54Z</time>
      </trkpt>
      <trkpt lat="45.24022" lon="5.5401">
        <ele>1137</ele>
        <time>2011-08-31T07:43:55Z</time>
      </trkpt>
      <trkpt lat="45.2403" lon="5.54017">
        <ele>1136.5</ele>
        <time>2011-08-31T07:43:57Z</time>
      </trkpt>
      <trkpt lat="45.24034" lon="5.54021">
        <ele>1136.3</ele>
        <time>2011-08-31T07:43:58Z</time>
      </trkpt>
      <trkpt lat="45.2404" lon="5.54027">
        <ele>1136</ele>
        <time>2011-08-31T07:44:00Z</time>
      </trkpt>
      <trkpt lat="45.24045" lon="5.54034">
        <ele>1135.8</ele>
        <time>2011-08-31T07:44:02Z</time>
      </trkpt>
      <trkpt lat="45.24051" lon="5.54041">
        <ele>1135.6</ele>
        <time>2011-08-31T07:44:04Z</time>
      </trkpt>
      <trkpt lat="45.24055" lon="5.54045">
        <ele>1134.7</ele>
        <time>2011-08-31T07:44:06Z</time>
      </trkpt>
      <trkpt lat="45.2406" lon="5.54051">
        <ele>1132.5</ele>
        <time>2011-08-31T07:44:09Z</time>
      </trkpt>
      <trkpt lat="45.24064" lon="5.54056">
        <ele>1130</ele>
        <time>2011-08-31T07:44:12Z</time>
      </trkpt>
      <trkpt lat="45.24069" lon="5.54062">
        <ele>1127.6</ele>
        <time>2011-08-31T07:44:15Z</time>
      </trkpt>
      <trkpt lat="45.24072" lon="5.54068">
        <ele>1126</ele>
        <time>2011-08-31T07:44:17Z</time>
      </trkpt>
      <trkpt lat="45.24077" lon="5.54074">
        <ele>1124</ele>
        <time>2011-08-31T07:44:19Z</time>
      </trkpt>
      <trkpt lat="45.24078" lon="5.54083">
        <ele>1121.9</ele>
        <time>2011-08-31T07:44:22Z</time>
      </trkpt>
      <trkpt lat="45.24078" lon="5.5409">
        <ele>1120.6</ele>
        <time>2011-08-31T07:44:24Z</time>
      </trkpt>
      <trkpt lat="45.24079" lon="5.54097">
        <ele>1117.5</ele>
        <time>2011-08-31T07:44:27Z</time>
      </trkpt>
      <trkpt lat="45.24082" lon="5.54103">
        <ele>1116.2</ele>
        <time>2011-08-31T07:44:30Z</time>
      </trkpt>
      <trkpt lat="45.24087" lon="5.54107">
        <ele>1115.7</ele>
        <time>2011-08-31T07:44:32Z</time>
      </trkpt>
      <trkpt lat="45.24092" lon="5.5411">
        <ele>1115.4</ele>
        <time>2011-08-31T07:44:34Z</time>
      </trkpt>
      <trkpt lat="45.24098" lon="5.54113">
        <ele>1114.8</ele>
        <time>2011-08-31T07:44:36Z</time>
      </trkpt>
      <trkpt lat="45.24104" lon="5.54118">
        <ele>1114</ele>
        <time>2011-08-31T07:44:38Z</time>
      </trkpt>
      <trkpt lat="45.2411" lon="5.54123">
        <ele>1113</ele>
        <time>2011-08-31T07:44:40Z</time>
      </trkpt>
      <trkpt lat="45.24115" lon="5.54126">
        <ele>1112.1</ele>
        <time>2011-08-31T07:44:41Z</time>
      </trkpt>
      <trkpt lat="45.24119" lon="5.5413">
        <ele>1111.3</ele>
        <time>2011-08-31T07:44:42Z</time>
      </trkpt>
      <trkpt lat="45.24123" lon="5.54134">
        <ele>1110.9</ele>
        <time>2011-08-31T07:44:43Z</time>
      </trkpt>
      <trkpt lat="45.24127" lon="5.54138">
        <ele>1110</ele>
        <time>2011-08-31T07:44:44Z</time>
      </trkpt>
      <trkpt lat="45.24131" lon="5.54141">
        <ele>1109.3</ele>
        <time>2011-08-31T07:44:45Z</time>
      </trkpt>
      <trkpt lat="45.24134" lon="5.54146">
        <ele>1108</ele>
        <time>2011-08-31T07:44:46Z</time>
      </trkpt>
      <trkpt lat="45.24138" lon="5.5415">
        <ele>1106.8</ele>
        <time>2011-08-31T07:44:47Z</time>
      </trkpt>
      <trkpt lat="45.24142" lon="5.54154">
        <ele>1105.3</ele>
        <time>2011-08-31T07:44:48Z</time>
      </trkpt>
      <trkpt lat="45.24146" lon="5.54156">
        <ele>1104.7</ele>
        <time>2011-08-31T07:44:49Z</time>
      </trkpt>
      <trkpt lat="45.24154" lon="5.54163">
        <ele>1103.6</ele>
        <time>2011-08-31T07:44:51Z</time>
      </trkpt>
      <trkpt lat="45.24158" lon="5.54167">
        <ele>1103.3</ele>
        <time>2011-08-31T07:44:52Z</time>
      </trkpt>
      <trkpt lat="45.24162" lon="5.5417">
        <ele>1103.2</ele>
        <time>2011-08-31T07:44:53Z</time>
      </trkpt>
      <trkpt lat="45.24167" lon="5.54174">
        <ele>1103.3</ele>
        <time>2011-08-31T07:44:54Z</time>
      </trkpt>
      <trkpt lat="45.24172" lon="5.54177">
        <ele>1103.1</ele>
        <time>2011-08-31T07:44:55Z</time>
      </trkpt>
      <trkpt lat="45.24176" lon="5.5418">
        <ele>1102.8</ele>
        <time>2011-08-31T07:44:56Z</time>
      </trkpt>
      <trkpt lat="45.24181" lon="5.54183">
        <ele>1102.6</ele>
        <time>2011-08-31T07:44:57Z</time>
      </trkpt>
      <trkpt lat="45.24184" lon="5.54186">
        <ele>1102.5</ele>
        <time>2011-08-31T07:44:58Z</time>
      </trkpt>
      <trkpt lat="45.24189" lon="5.54189">
        <ele>1102.3</ele>
        <time>2011-08-31T07:44:59Z</time>
      </trkpt>
      <trkpt lat="45.24194" lon="5.54193">
        <ele>1102</ele>
        <time>2011-08-31T07:45:00Z</time>
      </trkpt>
      <trkpt lat="45.24199" lon="5.54196">
        <ele>1101.7</ele>
        <time>2011-08-31T07:45:01Z</time>
      </trkpt>
      <trkpt lat="45.24207" lon="5.54203">
        <ele>1101.1</ele>
        <time>2011-08-31T07:45:03Z</time>
      </trkpt>
      <trkpt lat="45.24211" lon="5.54207">
        <ele>1100.6</ele>
        <time>2011-08-31T07:45:04Z</time>
      </trkpt>
      <trkpt lat="45.24216" lon="5.5421">
        <ele>1100</ele>
        <time>2011-08-31T07:45:05Z</time>
      </trkpt>
      <trkpt lat="45.24222" lon="5.54213">
        <ele>1098.6</ele>
        <time>2011-08-31T07:45:07Z</time>
      </trkpt>
      <trkpt lat="45.24215" lon="5.54211">
        <ele>1098.3</ele>
        <time>2011-08-31T07:45:08Z</time>
      </trkpt>
      <trkpt lat="45.24215" lon="5.54218">
        <ele>1096.4</ele>
        <time>2011-08-31T07:45:13Z</time>
      </trkpt>
      <trkpt lat="45.24219" lon="5.54225">
        <ele>1095.4</ele>
        <time>2011-08-31T07:45:16Z</time>
      </trkpt>
      <trkpt lat="45.24227" lon="5.54232">
        <ele>1094.8</ele>
        <time>2011-08-31T07:45:18Z</time>
      </trkpt>
      <trkpt lat="45.24232" lon="5.54237">
        <ele>1094</ele>
        <time>2011-08-31T07:45:19Z</time>
      </trkpt>
      <trkpt lat="45.24237" lon="5.54241">
        <ele>1093.7</ele>
        <time>2011-08-31T07:45:20Z</time>
      </trkpt>
      <trkpt lat="45.24241" lon="5.54244">
        <ele>1093.4</ele>
        <time>2011-08-31T07:45:21Z</time>
      </trkpt>
      <trkpt lat="45.24245" lon="5.54249">
        <ele>1092.8</ele>
        <time>2011-08-31T07:45:22Z</time>
      </trkpt>
      <trkpt lat="45.2425" lon="5.54252">
        <ele>1092.7</ele>
        <time>2011-08-31T07:45:23Z</time>
      </trkpt>
      <trkpt lat="45.24255" lon="5.54256">
        <ele>1092.3</ele>
        <time>2011-08-31T07:45:24Z</time>
      </trkpt>
      <trkpt lat="45.2426" lon="5.5426">
        <ele>1092</ele>
        <time>2011-08-31T07:45:25Z</time>
      </trkpt>
      <trkpt lat="45.24265" lon="5.54264">
        <ele>1091.8</ele>
        <time>2011-08-31T07:45:26Z</time>
      </trkpt>
      <trkpt lat="45.2427" lon="5.54268">
        <ele>1091.5</ele>
        <time>2011-08-31T07:45:27Z</time>
      </trkpt>
      <trkpt lat="45.24276" lon="5.54271">
        <ele>1091.3</ele>
        <time>2011-08-31T07:45:28Z</time>
      </trkpt>
      <trkpt lat="45.24281" lon="5.54275">
        <ele>1091.1</ele>
        <time>2011-08-31T07:45:29Z</time>
      </trkpt>
      <trkpt lat="45.24286" lon="5.54278">
        <ele>1091</ele>
        <time>2011-08-31T07:45:30Z</time>
      </trkpt>
      <trkpt lat="45.24292" lon="5.54282">
        <ele>1090.9</ele>
        <time>2011-08-31T07:45:31Z</time>
      </trkpt>
      <trkpt lat="45.24297" lon="5.54286">
        <ele>1090.4</ele>
        <time>2011-08-31T07:45:32Z</time>
      </trkpt>
      <trkpt lat="45.24302" lon="5.5429">
        <ele>1090.2</ele>
        <time>2011-08-31T07:45:33Z</time>
      </trkpt>
      <trkpt lat="45.24306" lon="5.54294">
        <ele>1089.6</ele>
        <time>2011-08-31T07:45:34Z</time>
      </trkpt>
      <trkpt lat="45.24311" lon="5.543">
        <ele>1089.3</ele>
        <time>2011-08-31T07:45:35Z</time>
      </trkpt>
      <trkpt lat="45.24316" lon="5.54304">
        <ele>1089.1</ele>
        <time>2011-08-31T07:45:36Z</time>
      </trkpt>
      <trkpt lat="45.2432" lon="5.54309">
        <ele>1088.9</ele>
        <time>2011-08-31T07:45:37Z</time>
      </trkpt>
      <trkpt lat="45.24325" lon="5.54317">
        <ele>1088.4</ele>
        <time>2011-08-31T07:45:39Z</time>
      </trkpt>
      <trkpt lat="45.24329" lon="5.54325">
        <ele>1088</ele>
        <time>2011-08-31T07:45:41Z</time>
      </trkpt>
      <trkpt lat="45.24333" lon="5.5433">
        <ele>1088</ele>
        <time>2011-08-31T07:45:42Z</time>
      </trkpt>
      <trkpt lat="45.24337" lon="5.54334">
        <ele>1087.9</ele>
        <time>2011-08-31T07:45:43Z</time>
      </trkpt>
      <trkpt lat="45.2434" lon="5.54339">
        <ele>1087.9</ele>
        <time>2011-08-31T07:45:44Z</time>
      </trkpt>
      <trkpt lat="45.24344" lon="5.54346">
        <ele>1087.7</ele>
        <time>2011-08-31T07:45:45Z</time>
      </trkpt>
      <trkpt lat="45.24343" lon="5.54354">
        <ele>1066.2</ele>
        <time>2011-08-31T07:45:52Z</time>
      </trkpt>
      <trkpt lat="45.24346" lon="5.54362">
        <ele>1064.7</ele>
        <time>2011-08-31T07:45:54Z</time>
      </trkpt>
      <trkpt lat="45.24349" lon="5.54367">
        <ele>1062.2</ele>
        <time>2011-08-31T07:45:57Z</time>
      </trkpt>
      <trkpt lat="45.24355" lon="5.5437">
        <ele>1058.9</ele>
        <time>2011-08-31T07:46:02Z</time>
      </trkpt>
      <trkpt lat="45.2436" lon="5.54373">
        <ele>1058.2</ele>
        <time>2011-08-31T07:46:04Z</time>
      </trkpt>
      <trkpt lat="45.24367" lon="5.54375">
        <ele>1057.4</ele>
        <time>2011-08-31T07:46:06Z</time>
      </trkpt>
      <trkpt lat="45.24372" lon="5.54379">
        <ele>1057.1</ele>
        <time>2011-08-31T07:46:08Z</time>
      </trkpt>
      <trkpt lat="45.24377" lon="5.54382">
        <ele>1056.6</ele>
        <time>2011-08-31T07:46:10Z</time>
      </trkpt>
      <trkpt lat="45.24385" lon="5.54386">
        <ele>1056.4</ele>
        <time>2011-08-31T07:46:12Z</time>
      </trkpt>
      <trkpt lat="45.24389" lon="5.54388">
        <ele>1055.6</ele>
        <time>2011-08-31T07:46:13Z</time>
      </trkpt>
      <trkpt lat="45.24394" lon="5.54391">
        <ele>1055</ele>
        <time>2011-08-31T07:46:14Z</time>
      </trkpt>
      <trkpt lat="45.24402" lon="5.54397">
        <ele>1054.1</ele>
        <time>2011-08-31T07:46:16Z</time>
      </trkpt>
      <trkpt lat="45.24406" lon="5.54401">
        <ele>1053.7</ele>
        <time>2011-08-31T07:46:17Z</time>
      </trkpt>
      <trkpt lat="45.24414" lon="5.54407">
        <ele>1052.6</ele>
        <time>2011-08-31T07:46:19Z</time>
      </trkpt>
      <trkpt lat="45.24419" lon="5.5441">
        <ele>1052.2</ele>
        <time>2011-08-31T07:46:20Z</time>
      </trkpt>
      <trkpt lat="45.24423" lon="5.54412">
        <ele>1051.8</ele>
        <time>2011-08-31T07:46:21Z</time>
      </trkpt>
      <trkpt lat="45.24428" lon="5.54415">
        <ele>1051.4</ele>
        <time>2011-08-31T07:46:22Z</time>
      </trkpt>
      <trkpt lat="45.24433" lon="5.54418">
        <ele>1051.1</ele>
        <time>2011-08-31T07:46:23Z</time>
      </trkpt>
      <trkpt lat="45.24437" lon="5.54421">
        <ele>1050.5</ele>
        <time>2011-08-31T07:46:24Z</time>
      </trkpt>
      <trkpt lat="45.24445" lon="5.54428">
        <ele>1049.2</ele>
        <time>2011-08-31T07:46:26Z</time>
      </trkpt>
      <trkpt lat="45.2445" lon="5.5443">
        <ele>1048.7</ele>
        <time>2011-08-31T07:46:27Z</time>
      </trkpt>
      <trkpt lat="45.24457" lon="5.54434">
        <ele>1048.3</ele>
        <time>2011-08-31T07:46:29Z</time>
      </trkpt>
      <trkpt lat="45.24462" lon="5.5444">
        <ele>1047.8</ele>
        <time>2011-08-31T07:46:31Z</time>
      </trkpt>
      <trkpt lat="45.24468" lon="5.54449">
        <ele>1047.3</ele>
        <time>2011-08-31T07:46:33Z</time>
      </trkpt>
      <trkpt lat="45.24471" lon="5.54457">
        <ele>1047.3</ele>
        <time>2011-08-31T07:46:34Z</time>
      </trkpt>
      <trkpt lat="45.24474" lon="5.54465">
        <ele>1047.1</ele>
        <time>2011-08-31T07:46:35Z</time>
      </trkpt>
      <trkpt lat="45.24477" lon="5.54473">
        <ele>1047</ele>
        <time>2011-08-31T07:46:36Z</time>
      </trkpt>
      <trkpt lat="45.24479" lon="5.5448">
        <ele>1046.7</ele>
        <time>2011-08-31T07:46:37Z</time>
      </trkpt>
      <trkpt lat="45.24478" lon="5.54491">
        <ele>1043.9</ele>
        <time>2011-08-31T07:46:39Z</time>
      </trkpt>
      <trkpt lat="45.24476" lon="5.54499">
        <ele>1041.4</ele>
        <time>2011-08-31T07:46:41Z</time>
      </trkpt>
      <trkpt lat="45.24476" lon="5.54507">
        <ele>1039.4</ele>
        <time>2011-08-31T07:46:43Z</time>
      </trkpt>
      <trkpt lat="45.24479" lon="5.54516">
        <ele>1038</ele>
        <time>2011-08-31T07:46:45Z</time>
      </trkpt>
      <trkpt lat="45.24482" lon="5.54522">
        <ele>1036.4</ele>
        <time>2011-08-31T07:46:46Z</time>
      </trkpt>
      <trkpt lat="45.24485" lon="5.54527">
        <ele>1035.2</ele>
        <time>2011-08-31T07:46:47Z</time>
      </trkpt>
      <trkpt lat="45.24488" lon="5.54533">
        <ele>1034</ele>
        <time>2011-08-31T07:46:48Z</time>
      </trkpt>
      <trkpt lat="45.24493" lon="5.5454">
        <ele>1033.2</ele>
        <time>2011-08-31T07:46:50Z</time>
      </trkpt>
      <trkpt lat="45.24496" lon="5.54548">
        <ele>1032.9</ele>
        <time>2011-08-31T07:46:52Z</time>
      </trkpt>
      <trkpt lat="45.24502" lon="5.54556">
        <ele>1032.2</ele>
        <time>2011-08-31T07:46:54Z</time>
      </trkpt>
      <trkpt lat="45.24508" lon="5.54563">
        <ele>1031.4</ele>
        <time>2011-08-31T07:46:56Z</time>
      </trkpt>
      <trkpt lat="45.24515" lon="5.5457">
        <ele>1030</ele>
        <time>2011-08-31T07:46:58Z</time>
      </trkpt>
      <trkpt lat="45.2452" lon="5.54573">
        <ele>1029</ele>
        <time>2011-08-31T07:46:59Z</time>
      </trkpt>
      <trkpt lat="45.24524" lon="5.54576">
        <ele>1028.2</ele>
        <time>2011-08-31T07:47:00Z</time>
      </trkpt>
      <trkpt lat="45.2453" lon="5.54583">
        <ele>1027</ele>
        <time>2011-08-31T07:47:01Z</time>
      </trkpt>
      <trkpt lat="45.24536" lon="5.5459">
        <ele>1025.9</ele>
        <time>2011-08-31T07:47:02Z</time>
      </trkpt>
      <trkpt lat="45.24541" lon="5.54596">
        <ele>1025.4</ele>
        <time>2011-08-31T07:47:03Z</time>
      </trkpt>
      <trkpt lat="45.24546" lon="5.54603">
        <ele>1024.8</ele>
        <time>2011-08-31T07:47:04Z</time>
      </trkpt>
      <trkpt lat="45.2455" lon="5.54609">
        <ele>1024.3</ele>
        <time>2011-08-31T07:47:05Z</time>
      </trkpt>
      <trkpt lat="45.24553" lon="5.54615">
        <ele>1023.9</ele>
        <time>2011-08-31T07:47:06Z</time>
      </trkpt>
      <trkpt lat="45.24558" lon="5.54623">
        <ele>1022.9</ele>
        <time>2011-08-31T07:47:07Z</time>
      </trkpt>
      <trkpt lat="45.24561" lon="5.54629">
        <ele>1021.9</ele>
        <time>2011-08-31T07:47:08Z</time>
      </trkpt>
      <trkpt lat="45.24566" lon="5.54636">
        <ele>1020.4</ele>
        <time>2011-08-31T07:47:10Z</time>
      </trkpt>
      <trkpt lat="45.24564" lon="5.54642">
        <ele>1017.9</ele>
        <time>2011-08-31T07:47:14Z</time>
      </trkpt>
      <trkpt lat="45.24568" lon="5.5464">
        <ele>1011.7</ele>
        <time>2011-08-31T07:48:28Z</time>
      </trkpt>
      <trkpt lat="45.24562" lon="5.5464">
        <ele>1012.3</ele>
        <time>2011-08-31T07:48:40Z</time>
      </trkpt>
      <trkpt lat="45.24556" lon="5.54642">
        <ele>1012.2</ele>
        <time>2011-08-31T07:48:44Z</time>
      </trkpt>
      <trkpt lat="45.24555" lon="5.54649">
        <ele>1007</ele>
        <time>2011-08-31T07:48:55Z</time>
      </trkpt>
      <trkpt lat="45.24556" lon="5.54657">
        <ele>1006</ele>
        <time>2011-08-31T07:48:58Z</time>
      </trkpt>
      <trkpt lat="45.24559" lon="5.54664">
        <ele>1005.7</ele>
        <time>2011-08-31T07:49:00Z</time>
      </trkpt>
      <trkpt lat="45.24561" lon="5.5467">
        <ele>1005.5</ele>
        <time>2011-08-31T07:49:02Z</time>
      </trkpt>
      <trkpt lat="45.24564" lon="5.54676">
        <ele>1005.2</ele>
        <time>2011-08-31T07:49:04Z</time>
      </trkpt>
      <trkpt lat="45.24568" lon="5.54681">
        <ele>1005.5</ele>
        <time>2011-08-31T07:49:06Z</time>
      </trkpt>
      <trkpt lat="45.24573" lon="5.54687">
        <ele>1006</ele>
        <time>2011-08-31T07:49:08Z</time>
      </trkpt>
      <trkpt lat="45.24578" lon="5.54692">
        <ele>1006.3</ele>
        <time>2011-08-31T07:49:10Z</time>
      </trkpt>
      <trkpt lat="45.24584" lon="5.54698">
        <ele>1006.3</ele>
        <time>2011-08-31T07:49:12Z</time>
      </trkpt>
      <trkpt lat="45.2459" lon="5.54705">
        <ele>1005.8</ele>
        <time>2011-08-31T07:49:14Z</time>
      </trkpt>
      <trkpt lat="45.24593" lon="5.5471">
        <ele>1005.6</ele>
        <time>2011-08-31T07:49:15Z</time>
      </trkpt>
      <trkpt lat="45.24597" lon="5.54715">
        <ele>1005.4</ele>
        <time>2011-08-31T07:49:16Z</time>
      </trkpt>
      <trkpt lat="45.246" lon="5.54722">
        <ele>1005.2</ele>
        <time>2011-08-31T07:49:17Z</time>
      </trkpt>
      <trkpt lat="45.24604" lon="5.54729">
        <ele>1005.2</ele>
        <time>2011-08-31T07:49:18Z</time>
      </trkpt>
      <trkpt lat="45.24608" lon="5.54737">
        <ele>1004.8</ele>
        <time>2011-08-31T07:49:19Z</time>
      </trkpt>
      <trkpt lat="45.24612" lon="5.54744">
        <ele>1004.5</ele>
        <time>2011-08-31T07:49:20Z</time>
      </trkpt>
      <trkpt lat="45.24617" lon="5.5475">
        <ele>1004.4</ele>
        <time>2011-08-31T07:49:21Z</time>
      </trkpt>
      <trkpt lat="45.2462" lon="5.54755">
        <ele>1004.3</ele>
        <time>2011-08-31T07:49:22Z</time>
      </trkpt>
      <trkpt lat="45.24626" lon="5.54758">
        <ele>1003.9</ele>
        <time>2011-08-31T07:49:23Z</time>
      </trkpt>
      <trkpt lat="45.2463" lon="5.54763">
        <ele>1003.7</ele>
        <time>2011-08-31T07:49:24Z</time>
      </trkpt>
      <trkpt lat="45.24633" lon="5.54768">
        <ele>1003.3</ele>
        <time>2011-08-31T07:49:25Z</time>
      </trkpt>
      <trkpt lat="45.24637" lon="5.54772">
        <ele>1003.1</ele>
        <time>2011-08-31T07:49:26Z</time>
      </trkpt>
      <trkpt lat="45.24642" lon="5.54779">
        <ele>1002.6</ele>
        <time>2011-08-31T07:49:28Z</time>
      </trkpt>
      <trkpt lat="45.24646" lon="5.54782">
        <ele>1002.6</ele>
        <time>2011-08-31T07:49:29Z</time>
      </trkpt>
      <trkpt lat="45.24652" lon="5.54789">
        <ele>1001.7</ele>
        <time>2011-08-31T07:49:31Z</time>
      </trkpt>
      <trkpt lat="45.24659" lon="5.54794">
        <ele>1000.9</ele>
        <time>2011-08-31T07:49:33Z</time>
      </trkpt>
      <trkpt lat="45.24666" lon="5.548">
        <ele>1000.1</ele>
        <time>2011-08-31T07:49:35Z</time>
      </trkpt>
      <trkpt lat="45.24672" lon="5.54809">
        <ele>999.1</ele>
        <time>2011-08-31T07:49:37Z</time>
      </trkpt>
      <trkpt lat="45.24676" lon="5.54814">
        <ele>998.3</ele>
        <time>2011-08-31T07:49:38Z</time>
      </trkpt>
      <trkpt lat="45.24678" lon="5.5482">
        <ele>998</ele>
        <time>2011-08-31T07:49:39Z</time>
      </trkpt>
      <trkpt lat="45.24681" lon="5.5483">
        <ele>997</ele>
        <time>2011-08-31T07:49:41Z</time>
      </trkpt>
      <trkpt lat="45.24684" lon="5.54837">
        <ele>996.2</ele>
        <time>2011-08-31T07:49:43Z</time>
      </trkpt>
      <trkpt lat="45.24689" lon="5.54842">
        <ele>995.3</ele>
        <time>2011-08-31T07:49:45Z</time>
      </trkpt>
      <trkpt lat="45.24693" lon="5.54845">
        <ele>994.5</ele>
        <time>2011-08-31T07:49:46Z</time>
      </trkpt>
      <trkpt lat="45.24699" lon="5.54848">
        <ele>993.7</ele>
        <time>2011-08-31T07:49:48Z</time>
      </trkpt>
      <trkpt lat="45.24707" lon="5.5485">
        <ele>993.3</ele>
        <time>2011-08-31T07:49:50Z</time>
      </trkpt>
      <trkpt lat="45.24714" lon="5.54852">
        <ele>991.5</ele>
        <time>2011-08-31T07:49:52Z</time>
      </trkpt>
      <trkpt lat="45.24719" lon="5.54854">
        <ele>990.2</ele>
        <time>2011-08-31T07:49:54Z</time>
      </trkpt>
      <trkpt lat="45.24724" lon="5.54856">
        <ele>989.9</ele>
        <time>2011-08-31T07:49:56Z</time>
      </trkpt>
      <trkpt lat="45.2473" lon="5.54859">
        <ele>988.5</ele>
        <time>2011-08-31T07:49:58Z</time>
      </trkpt>
      <trkpt lat="45.24735" lon="5.54857">
        <ele>984.1</ele>
        <time>2011-08-31T07:50:00Z</time>
      </trkpt>
      <trkpt lat="45.24736" lon="5.54851">
        <ele>980.5</ele>
        <time>2011-08-31T07:50:27Z</time>
      </trkpt>
      <trkpt lat="45.24737" lon="5.54844">
        <ele>980.8</ele>
        <time>2011-08-31T07:50:29Z</time>
      </trkpt>
      <trkpt lat="45.24741" lon="5.54855">
        <ele>977.8</ele>
        <time>2011-08-31T07:50:48Z</time>
      </trkpt>
      <trkpt lat="45.24747" lon="5.54856">
        <ele>976.1</ele>
        <time>2011-08-31T07:50:51Z</time>
      </trkpt>
      <trkpt lat="45.24753" lon="5.54858">
        <ele>974.9</ele>
        <time>2011-08-31T07:50:53Z</time>
      </trkpt>
      <trkpt lat="45.24758" lon="5.54859">
        <ele>974.6</ele>
        <time>2011-08-31T07:50:55Z</time>
      </trkpt>
      <trkpt lat="45.24763" lon="5.5486">
        <ele>974.2</ele>
        <time>2011-08-31T07:50:57Z</time>
      </trkpt>
      <trkpt lat="45.24768" lon="5.54862">
        <ele>973.8</ele>
        <time>2011-08-31T07:50:59Z</time>
      </trkpt>
      <trkpt lat="45.24774" lon="5.54864">
        <ele>973.5</ele>
        <time>2011-08-31T07:51:01Z</time>
      </trkpt>
      <trkpt lat="45.24781" lon="5.54866">
        <ele>973.4</ele>
        <time>2011-08-31T07:51:03Z</time>
      </trkpt>
      <trkpt lat="45.24788" lon="5.54869">
        <ele>972.7</ele>
        <time>2011-08-31T07:51:05Z</time>
      </trkpt>
      <trkpt lat="45.24794" lon="5.54872">
        <ele>972.6</ele>
        <time>2011-08-31T07:51:07Z</time>
      </trkpt>
      <trkpt lat="45.24799" lon="5.54874">
        <ele>970.6</ele>
        <time>2011-08-31T07:51:09Z</time>
      </trkpt>
      <trkpt lat="45.24805" lon="5.54876">
        <ele>968.1</ele>
        <time>2011-08-31T07:51:12Z</time>
      </trkpt>
      <trkpt lat="45.2481" lon="5.54879">
        <ele>967</ele>
        <time>2011-08-31T07:51:14Z</time>
      </trkpt>
      <trkpt lat="45.24815" lon="5.54883">
        <ele>965.6</ele>
        <time>2011-08-31T07:51:16Z</time>
      </trkpt>
      <trkpt lat="45.2482" lon="5.54888">
        <ele>964.9</ele>
        <time>2011-08-31T07:51:18Z</time>
      </trkpt>
      <trkpt lat="45.24825" lon="5.54893">
        <ele>964.3</ele>
        <time>2011-08-31T07:51:20Z</time>
      </trkpt>
      <trkpt lat="45.24831" lon="5.54897">
        <ele>963.3</ele>
        <time>2011-08-31T07:51:22Z</time>
      </trkpt>
      <trkpt lat="45.24836" lon="5.54901">
        <ele>962.7</ele>
        <time>2011-08-31T07:51:24Z</time>
      </trkpt>
      <trkpt lat="45.24844" lon="5.54905">
        <ele>962.1</ele>
        <time>2011-08-31T07:51:26Z</time>
      </trkpt>
      <trkpt lat="45.24852" lon="5.54906">
        <ele>961.2</ele>
        <time>2011-08-31T07:51:28Z</time>
      </trkpt>
      <trkpt lat="45.24859" lon="5.54907">
        <ele>960.9</ele>
        <time>2011-08-31T07:51:30Z</time>
      </trkpt>
      <trkpt lat="45.24865" lon="5.54909">
        <ele>961</ele>
        <time>2011-08-31T07:51:32Z</time>
      </trkpt>
      <trkpt lat="45.24872" lon="5.54909">
        <ele>960.2</ele>
        <time>2011-08-31T07:51:34Z</time>
      </trkpt>
      <trkpt lat="45.24877" lon="5.54908">
        <ele>959.5</ele>
        <time>2011-08-31T07:51:36Z</time>
      </trkpt>
      <trkpt lat="45.24883" lon="5.54908">
        <ele>958.9</ele>
        <time>2011-08-31T07:51:39Z</time>
      </trkpt>
      <trkpt lat="45.24888" lon="5.5491">
        <ele>958</ele>
        <time>2011-08-31T07:51:42Z</time>
      </trkpt>
      <trkpt lat="45.24891" lon="5.54914">
        <ele>956.3</ele>
        <time>2011-08-31T07:51:47Z</time>
      </trkpt>
      <trkpt lat="45.24898" lon="5.54912">
        <ele>954.6</ele>
        <time>2011-08-31T07:51:55Z</time>
      </trkpt>
      <trkpt lat="45.24901" lon="5.54908">
        <ele>954</ele>
        <time>2011-08-31T07:51:57Z</time>
      </trkpt>
      <trkpt lat="45.24906" lon="5.54904">
        <ele>953.7</ele>
        <time>2011-08-31T07:51:59Z</time>
      </trkpt>
      <trkpt lat="45.2491" lon="5.54901">
        <ele>953.3</ele>
        <time>2011-08-31T07:52:01Z</time>
      </trkpt>
      <trkpt lat="45.24914" lon="5.54898">
        <ele>953</ele>
        <time>2011-08-31T07:52:03Z</time>
      </trkpt>
      <trkpt lat="45.24919" lon="5.54896">
        <ele>952.8</ele>
        <time>2011-08-31T07:52:05Z</time>
      </trkpt>
      <trkpt lat="45.24923" lon="5.54896">
        <ele>952.4</ele>
        <time>2011-08-31T07:52:07Z</time>
      </trkpt>
      <trkpt lat="45.24931" lon="5.54897">
        <ele>953.6</ele>
        <time>2011-08-31T07:52:17Z</time>
      </trkpt>
      <trkpt lat="45.24936" lon="5.54897">
        <ele>953.1</ele>
        <time>2011-08-31T07:52:21Z</time>
      </trkpt>
      <trkpt lat="45.24941" lon="5.549">
        <ele>952.5</ele>
        <time>2011-08-31T07:52:24Z</time>
      </trkpt>
      <trkpt lat="45.24946" lon="5.54898">
        <ele>952.9</ele>
        <time>2011-08-31T07:52:27Z</time>
      </trkpt>
      <trkpt lat="45.24951" lon="5.54901">
        <ele>952.2</ele>
        <time>2011-08-31T07:52:32Z</time>
      </trkpt>
      <trkpt lat="45.24955" lon="5.54904">
        <ele>951.1</ele>
        <time>2011-08-31T07:52:36Z</time>
      </trkpt>
      <trkpt lat="45.2496" lon="5.54907">
        <ele>951</ele>
        <time>2011-08-31T07:52:39Z</time>
      </trkpt>
      <trkpt lat="45.24965" lon="5.54908">
        <ele>951.2</ele>
        <time>2011-08-31T07:52:41Z</time>
      </trkpt>
      <trkpt lat="45.24971" lon="5.54908">
        <ele>951.3</ele>
        <time>2011-08-31T07:52:43Z</time>
      </trkpt>
      <trkpt lat="45.24977" lon="5.54908">
        <ele>951.6</ele>
        <time>2011-08-31T07:52:45Z</time>
      </trkpt>
      <trkpt lat="45.24983" lon="5.54911">
        <ele>951.6</ele>
        <time>2011-08-31T07:52:47Z</time>
      </trkpt>
      <trkpt lat="45.24989" lon="5.54913">
        <ele>951.2</ele>
        <time>2011-08-31T07:52:49Z</time>
      </trkpt>
      <trkpt lat="45.24997" lon="5.54914">
        <ele>950.9</ele>
        <time>2011-08-31T07:52:51Z</time>
      </trkpt>
      <trkpt lat="45.25004" lon="5.54915">
        <ele>950.7</ele>
        <time>2011-08-31T07:52:53Z</time>
      </trkpt>
      <trkpt lat="45.25011" lon="5.54916">
        <ele>950.9</ele>
        <time>2011-08-31T07:52:55Z</time>
      </trkpt>
      <trkpt lat="45.25016" lon="5.54915">
        <ele>951.3</ele>
        <time>2011-08-31T07:52:57Z</time>
      </trkpt>
      <trkpt lat="45.25021" lon="5.54917">
        <ele>951.2</ele>
        <time>2011-08-31T07:52:59Z</time>
      </trkpt>
      <trkpt lat="45.25026" lon="5.54919">
        <ele>950.4</ele>
        <time>2011-08-31T07:53:01Z</time>
      </trkpt>
      <trkpt lat="45.25031" lon="5.5492">
        <ele>949.1</ele>
        <time>2011-08-31T07:53:03Z</time>
      </trkpt>
      <trkpt lat="45.25036" lon="5.5492">
        <ele>947.5</ele>
        <time>2011-08-31T07:53:05Z</time>
      </trkpt>
      <trkpt lat="45.25041" lon="5.54923">
        <ele>946</ele>
        <time>2011-08-31T07:53:07Z</time>
      </trkpt>
      <trkpt lat="45.25045" lon="5.54927">
        <ele>945</ele>
        <time>2011-08-31T07:53:09Z</time>
      </trkpt>
      <trkpt lat="45.25048" lon="5.54932">
        <ele>943.8</ele>
        <time>2011-08-31T07:53:11Z</time>
      </trkpt>
      <trkpt lat="45.25053" lon="5.54938">
        <ele>941.5</ele>
        <time>2011-08-31T07:53:14Z</time>
      </trkpt>
      <trkpt lat="45.25056" lon="5.54943">
        <ele>940</ele>
        <time>2011-08-31T07:53:16Z</time>
      </trkpt>
      <trkpt lat="45.25061" lon="5.54946">
        <ele>938.4</ele>
        <time>2011-08-31T07:53:20Z</time>
      </trkpt>
      <trkpt lat="45.25067" lon="5.54943">
        <ele>939.1</ele>
        <time>2011-08-31T07:53:24Z</time>
      </trkpt>
      <trkpt lat="45.25072" lon="5.54942">
        <ele>939.8</ele>
        <time>2011-08-31T07:53:27Z</time>
      </trkpt>
      <trkpt lat="45.25078" lon="5.54941">
        <ele>940.4</ele>
        <time>2011-08-31T07:53:30Z</time>
      </trkpt>
      <trkpt lat="45.25084" lon="5.54938">
        <ele>941.4</ele>
        <time>2011-08-31T07:53:32Z</time>
      </trkpt>
      <trkpt lat="45.25093" lon="5.54935">
        <ele>942.6</ele>
        <time>2011-08-31T07:53:34Z</time>
      </trkpt>
      <trkpt lat="45.25098" lon="5.54934">
        <ele>943.4</ele>
        <time>2011-08-31T07:53:35Z</time>
      </trkpt>
      <trkpt lat="45.25102" lon="5.54932">
        <ele>943.8</ele>
        <time>2011-08-31T07:53:36Z</time>
      </trkpt>
      <trkpt lat="45.25108" lon="5.5493">
        <ele>944.3</ele>
        <time>2011-08-31T07:53:37Z</time>
      </trkpt>
      <trkpt lat="45.25112" lon="5.54929">
        <ele>944.6</ele>
        <time>2011-08-31T07:53:38Z</time>
      </trkpt>
      <trkpt lat="45.2512" lon="5.54926">
        <ele>944.6</ele>
        <time>2011-08-31T07:53:40Z</time>
      </trkpt>
      <trkpt lat="45.25126" lon="5.54923">
        <ele>944.8</ele>
        <time>2011-08-31T07:53:42Z</time>
      </trkpt>
      <trkpt lat="45.25132" lon="5.5492">
        <ele>945</ele>
        <time>2011-08-31T07:53:45Z</time>
      </trkpt>
      <trkpt lat="45.25136" lon="5.54915">
        <ele>945</ele>
        <time>2011-08-31T07:53:48Z</time>
      </trkpt>
      <trkpt lat="45.25139" lon="5.5491">
        <ele>944.4</ele>
        <time>2011-08-31T07:53:51Z</time>
      </trkpt>
      <trkpt lat="45.25143" lon="5.54906">
        <ele>943.7</ele>
        <time>2011-08-31T07:53:53Z</time>
      </trkpt>
      <trkpt lat="45.25146" lon="5.54902">
        <ele>943.9</ele>
        <time>2011-08-31T07:53:56Z</time>
      </trkpt>
      <trkpt lat="45.25149" lon="5.54896">
        <ele>943.9</ele>
        <time>2011-08-31T07:54:02Z</time>
      </trkpt>
      <trkpt lat="45.25152" lon="5.54889">
        <ele>942.4</ele>
        <time>2011-08-31T07:54:07Z</time>
      </trkpt>
      <trkpt lat="45.25154" lon="5.54884">
        <ele>940.9</ele>
        <time>2011-08-31T07:54:14Z</time>
      </trkpt>
      <trkpt lat="45.25154" lon="5.54884">
        <ele>940.9</ele>
        <time>2011-08-31T07:54:14Z</time>
      </trkpt>
      <trkpt lat="45.25154" lon="5.54884">
        <ele>940.9</ele>
        <time>2011-08-31T07:54:17Z</time>
      </trkpt>
      <trkpt lat="45.25155" lon="5.54877">
        <ele>940.2</ele>
        <time>2011-08-31T07:54:20Z</time>
      </trkpt>
      <trkpt lat="45.25154" lon="5.54871">
        <ele>937.3</ele>
        <time>2011-08-31T07:54:25Z</time>
      </trkpt>
      <trkpt lat="45.25154" lon="5.54863">
        <ele>935.4</ele>
        <time>2011-08-31T07:54:34Z</time>
      </trkpt>
      <trkpt lat="45.25159" lon="5.54852">
        <ele>935.1</ele>
        <time>2011-08-31T07:54:46Z</time>
      </trkpt>
      <trkpt lat="45.25161" lon="5.54845">
        <ele>934.5</ele>
        <time>2011-08-31T07:54:50Z</time>
      </trkpt>
      <trkpt lat="45.25162" lon="5.54838">
        <ele>933.7</ele>
        <time>2011-08-31T07:54:52Z</time>
      </trkpt>
      <trkpt lat="45.25165" lon="5.54832">
        <ele>933.5</ele>
        <time>2011-08-31T07:55:00Z</time>
      </trkpt>
      <trkpt lat="45.2517" lon="5.54829">
        <ele>934.1</ele>
        <time>2011-08-31T07:55:03Z</time>
      </trkpt>
      <trkpt lat="45.25174" lon="5.54832">
        <ele>935.3</ele>
        <time>2011-08-31T07:55:15Z</time>
      </trkpt>
      <trkpt lat="45.25178" lon="5.54836">
        <ele>937.6</ele>
        <time>2011-08-31T07:55:21Z</time>
      </trkpt>
      <trkpt lat="45.25183" lon="5.54839">
        <ele>937.8</ele>
        <time>2011-08-31T07:55:27Z</time>
      </trkpt>
      <trkpt lat="45.25187" lon="5.54842">
        <ele>939.8</ele>
        <time>2011-08-31T07:55:35Z</time>
      </trkpt>
      <trkpt lat="45.25192" lon="5.54844">
        <ele>941.6</ele>
        <time>2011-08-31T07:55:41Z</time>
      </trkpt>
      <trkpt lat="45.25196" lon="5.54846">
        <ele>942.4</ele>
        <time>2011-08-31T07:55:49Z</time>
      </trkpt>
      <trkpt lat="45.25201" lon="5.54845">
        <ele>943</ele>
        <time>2011-08-31T07:55:54Z</time>
      </trkpt>
      <trkpt lat="45.25206" lon="5.54844">
        <ele>943.2</ele>
        <time>2011-08-31T07:55:59Z</time>
      </trkpt>
      <trkpt lat="45.25212" lon="5.54843">
        <ele>943.7</ele>
        <time>2011-08-31T07:56:04Z</time>
      </trkpt>
      <trkpt lat="45.25217" lon="5.54843">
        <ele>943.3</ele>
        <time>2011-08-31T07:56:08Z</time>
      </trkpt>
      <trkpt lat="45.25222" lon="5.54841">
        <ele>944.6</ele>
        <time>2011-08-31T07:56:13Z</time>
      </trkpt>
      <trkpt lat="45.25227" lon="5.54841">
        <ele>946.4</ele>
        <time>2011-08-31T07:56:19Z</time>
      </trkpt>
      <trkpt lat="45.25232" lon="5.54839">
        <ele>947.4</ele>
        <time>2011-08-31T07:56:25Z</time>
      </trkpt>
      <trkpt lat="45.25238" lon="5.54836">
        <ele>948.1</ele>
        <time>2011-08-31T07:56:34Z</time>
      </trkpt>
      <trkpt lat="45.25243" lon="5.54836">
        <ele>949.5</ele>
        <time>2011-08-31T07:56:39Z</time>
      </trkpt>
      <trkpt lat="45.25248" lon="5.54839">
        <ele>950.5</ele>
        <time>2011-08-31T07:56:48Z</time>
      </trkpt>
      <trkpt lat="45.25252" lon="5.54842">
        <ele>950.4</ele>
        <time>2011-08-31T07:56:52Z</time>
      </trkpt>
      <trkpt lat="45.25257" lon="5.54844">
        <ele>952.3</ele>
        <time>2011-08-31T07:56:57Z</time>
      </trkpt>
      <trkpt lat="45.2526" lon="5.54848">
        <ele>953</ele>
        <time>2011-08-31T07:57:04Z</time>
      </trkpt>
      <trkpt lat="45.25263" lon="5.54854">
        <ele>953.6</ele>
        <time>2011-08-31T07:57:10Z</time>
      </trkpt>
      <trkpt lat="45.25268" lon="5.54859">
        <ele>954.8</ele>
        <time>2011-08-31T07:57:16Z</time>
      </trkpt>
      <trkpt lat="45.25273" lon="5.54862">
        <ele>955.2</ele>
        <time>2011-08-31T07:57:20Z</time>
      </trkpt>
      <trkpt lat="45.25278" lon="5.54865">
        <ele>955</ele>
        <time>2011-08-31T07:57:23Z</time>
      </trkpt>
      <trkpt lat="45.25282" lon="5.54868">
        <ele>955.8</ele>
        <time>2011-08-31T07:57:29Z</time>
      </trkpt>
      <trkpt lat="45.25282" lon="5.54868">
        <ele>955.8</ele>
        <time>2011-08-31T07:57:29Z</time>
      </trkpt>
      <trkpt lat="45.25282" lon="5.54868">
        <ele>955.8</ele>
        <time>2011-08-31T07:57:34Z</time>
      </trkpt>
      <trkpt lat="45.25287" lon="5.54866">
        <ele>955.3</ele>
        <time>2011-08-31T07:57:36Z</time>
      </trkpt>
      <trkpt lat="45.25289" lon="5.54855">
        <ele>953.7</ele>
        <time>2011-08-31T07:57:48Z</time>
      </trkpt>
      <trkpt lat="45.25294" lon="5.54858">
        <ele>957.8</ele>
        <time>2011-08-31T07:58:20Z</time>
      </trkpt>
      <trkpt lat="45.25298" lon="5.54862">
        <ele>961.4</ele>
        <time>2011-08-31T07:58:54Z</time>
      </trkpt>
      <trkpt lat="45.25303" lon="5.54863">
        <ele>961.6</ele>
        <time>2011-08-31T07:58:55Z</time>
      </trkpt>
      <trkpt lat="45.25307" lon="5.54865">
        <ele>961.8</ele>
        <time>2011-08-31T07:58:56Z</time>
      </trkpt>
      <trkpt lat="45.25314" lon="5.54867">
        <ele>961.6</ele>
        <time>2011-08-31T07:58:57Z</time>
      </trkpt>
      <trkpt lat="45.2532" lon="5.54868">
        <ele>961.6</ele>
        <time>2011-08-31T07:58:58Z</time>
      </trkpt>
      <trkpt lat="45.25324" lon="5.54869">
        <ele>961.8</ele>
        <time>2011-08-31T07:58:59Z</time>
      </trkpt>
      <trkpt lat="45.2533" lon="5.54869">
        <ele>961.8</ele>
        <time>2011-08-31T07:59:00Z</time>
      </trkpt>
      <trkpt lat="45.25334" lon="5.54871">
        <ele>961.9</ele>
        <time>2011-08-31T07:59:01Z</time>
      </trkpt>
      <trkpt lat="45.25339" lon="5.54872">
        <ele>961.9</ele>
        <time>2011-08-31T07:59:02Z</time>
      </trkpt>
      <trkpt lat="45.25344" lon="5.54874">
        <ele>962.2</ele>
        <time>2011-08-31T07:59:03Z</time>
      </trkpt>
      <trkpt lat="45.25349" lon="5.54875">
        <ele>962.4</ele>
        <time>2011-08-31T07:59:04Z</time>
      </trkpt>
      <trkpt lat="45.25354" lon="5.54876">
        <ele>962.6</ele>
        <time>2011-08-31T07:59:05Z</time>
      </trkpt>
      <trkpt lat="45.2536" lon="5.54876">
        <ele>962.7</ele>
        <time>2011-08-31T07:59:06Z</time>
      </trkpt>
      <trkpt lat="45.25367" lon="5.54873">
        <ele>962.8</ele>
        <time>2011-08-31T07:59:08Z</time>
      </trkpt>
      <trkpt lat="45.25375" lon="5.5487">
        <ele>962.6</ele>
        <time>2011-08-31T07:59:10Z</time>
      </trkpt>
      <trkpt lat="45.25382" lon="5.54865">
        <ele>961.9</ele>
        <time>2011-08-31T07:59:12Z</time>
      </trkpt>
      <trkpt lat="45.25387" lon="5.54862">
        <ele>961.7</ele>
        <time>2011-08-31T07:59:13Z</time>
      </trkpt>
      <trkpt lat="45.25394" lon="5.54855">
        <ele>961.2</ele>
        <time>2011-08-31T07:59:15Z</time>
      </trkpt>
      <trkpt lat="45.25402" lon="5.54849">
        <ele>961.3</ele>
        <time>2011-08-31T07:59:17Z</time>
      </trkpt>
      <trkpt lat="45.25406" lon="5.54846">
        <ele>961.1</ele>
        <time>2011-08-31T07:59:18Z</time>
      </trkpt>
      <trkpt lat="45.25414" lon="5.54842">
        <ele>960.8</ele>
        <time>2011-08-31T07:59:20Z</time>
      </trkpt>
      <trkpt lat="45.25418" lon="5.5484">
        <ele>960.7</ele>
        <time>2011-08-31T07:59:21Z</time>
      </trkpt>
      <trkpt lat="45.25424" lon="5.54838">
        <ele>960.8</ele>
        <time>2011-08-31T07:59:22Z</time>
      </trkpt>
      <trkpt lat="45.25429" lon="5.54836">
        <ele>960.5</ele>
        <time>2011-08-31T07:59:23Z</time>
      </trkpt>
      <trkpt lat="45.25433" lon="5.54834">
        <ele>960.2</ele>
        <time>2011-08-31T07:59:24Z</time>
      </trkpt>
      <trkpt lat="45.25439" lon="5.54831">
        <ele>960</ele>
        <time>2011-08-31T07:59:25Z</time>
      </trkpt>
      <trkpt lat="45.25444" lon="5.54828">
        <ele>959.7</ele>
        <time>2011-08-31T07:59:26Z</time>
      </trkpt>
      <trkpt lat="45.25449" lon="5.54825">
        <ele>959.4</ele>
        <time>2011-08-31T07:59:27Z</time>
      </trkpt>
      <trkpt lat="45.25455" lon="5.54822">
        <ele>957.5</ele>
        <time>2011-08-31T07:59:28Z</time>
      </trkpt>
      <trkpt lat="45.25461" lon="5.54819">
        <ele>955.5</ele>
        <time>2011-08-31T07:59:29Z</time>
      </trkpt>
      <trkpt lat="45.25465" lon="5.54816">
        <ele>955</ele>
        <time>2011-08-31T07:59:30Z</time>
      </trkpt>
      <trkpt lat="45.2547" lon="5.54814">
        <ele>953.6</ele>
        <time>2011-08-31T07:59:31Z</time>
      </trkpt>
      <trkpt lat="45.25475" lon="5.54812">
        <ele>953.3</ele>
        <time>2011-08-31T07:59:32Z</time>
      </trkpt>
      <trkpt lat="45.25483" lon="5.5481">
        <ele>952.4</ele>
        <time>2011-08-31T07:59:34Z</time>
      </trkpt>
      <trkpt lat="45.25488" lon="5.54811">
        <ele>951.9</ele>
        <time>2011-08-31T07:59:35Z</time>
      </trkpt>
      <trkpt lat="45.25492" lon="5.54812">
        <ele>951.7</ele>
        <time>2011-08-31T07:59:36Z</time>
      </trkpt>
      <trkpt lat="45.25498" lon="5.54814">
        <ele>951.1</ele>
        <time>2011-08-31T07:59:37Z</time>
      </trkpt>
      <trkpt lat="45.25503" lon="5.54816">
        <ele>950.8</ele>
        <time>2011-08-31T07:59:38Z</time>
      </trkpt>
      <trkpt lat="45.25508" lon="5.54817">
        <ele>950.4</ele>
        <time>2011-08-31T07:59:39Z</time>
      </trkpt>
      <trkpt lat="45.25515" lon="5.54817">
        <ele>949.6</ele>
        <time>2011-08-31T07:59:41Z</time>
      </trkpt>
      <trkpt lat="45.2552" lon="5.54818">
        <ele>943.3</ele>
        <time>2011-08-31T08:00:48Z</time>
      </trkpt>
      <trkpt lat="45.25524" lon="5.54814">
        <ele>942.5</ele>
        <time>2011-08-31T08:00:52Z</time>
      </trkpt>
      <trkpt lat="45.25528" lon="5.5481">
        <ele>942.5</ele>
        <time>2011-08-31T08:00:55Z</time>
      </trkpt>
      <trkpt lat="45.25534" lon="5.54804">
        <ele>942.3</ele>
        <time>2011-08-31T08:00:57Z</time>
      </trkpt>
      <trkpt lat="45.2554" lon="5.54799">
        <ele>942.3</ele>
        <time>2011-08-31T08:00:59Z</time>
      </trkpt>
      <trkpt lat="45.25545" lon="5.54793">
        <ele>942.1</ele>
        <time>2011-08-31T08:01:01Z</time>
      </trkpt>
      <trkpt lat="45.2555" lon="5.54786">
        <ele>942</ele>
        <time>2011-08-31T08:01:03Z</time>
      </trkpt>
      <trkpt lat="45.25556" lon="5.5478">
        <ele>941.4</ele>
        <time>2011-08-31T08:01:05Z</time>
      </trkpt>
      <trkpt lat="45.25562" lon="5.54774">
        <ele>941.5</ele>
        <time>2011-08-31T08:01:07Z</time>
      </trkpt>
      <trkpt lat="45.25569" lon="5.5477">
        <ele>941.6</ele>
        <time>2011-08-31T08:01:09Z</time>
      </trkpt>
      <trkpt lat="45.25576" lon="5.54767">
        <ele>941.7</ele>
        <time>2011-08-31T08:01:11Z</time>
      </trkpt>
      <trkpt lat="45.25582" lon="5.54764">
        <ele>941.8</ele>
        <time>2011-08-31T08:01:13Z</time>
      </trkpt>
      <trkpt lat="45.25589" lon="5.54762">
        <ele>941.6</ele>
        <time>2011-08-31T08:01:15Z</time>
      </trkpt>
      <trkpt lat="45.25593" lon="5.54759">
        <ele>941.6</ele>
        <time>2011-08-31T08:01:16Z</time>
      </trkpt>
      <trkpt lat="45.25598" lon="5.54757">
        <ele>941.5</ele>
        <time>2011-08-31T08:01:17Z</time>
      </trkpt>
      <trkpt lat="45.25602" lon="5.54755">
        <ele>941.4</ele>
        <time>2011-08-31T08:01:18Z</time>
      </trkpt>
      <trkpt lat="45.25611" lon="5.54749">
        <ele>941.8</ele>
        <time>2011-08-31T08:01:20Z</time>
      </trkpt>
      <trkpt lat="45.25616" lon="5.54745">
        <ele>942.2</ele>
        <time>2011-08-31T08:01:21Z</time>
      </trkpt>
      <trkpt lat="45.2562" lon="5.54741">
        <ele>942.5</ele>
        <time>2011-08-31T08:01:22Z</time>
      </trkpt>
      <trkpt lat="45.25626" lon="5.54732">
        <ele>942.6</ele>
        <time>2011-08-31T08:01:24Z</time>
      </trkpt>
      <trkpt lat="45.2563" lon="5.54725">
        <ele>942.3</ele>
        <time>2011-08-31T08:01:26Z</time>
      </trkpt>
      <trkpt lat="45.25633" lon="5.54719">
        <ele>941.7</ele>
        <time>2011-08-31T08:01:28Z</time>
      </trkpt>
      <trkpt lat="45.25635" lon="5.54713">
        <ele>941.1</ele>
        <time>2011-08-31T08:01:30Z</time>
      </trkpt>
      <trkpt lat="45.25636" lon="5.54705">
        <ele>940.6</ele>
        <time>2011-08-31T08:01:33Z</time>
      </trkpt>
      <trkpt lat="45.25636" lon="5.54697">
        <ele>940.4</ele>
        <time>2011-08-31T08:01:36Z</time>
      </trkpt>
      <trkpt lat="45.25635" lon="5.54691">
        <ele>940.7</ele>
        <time>2011-08-31T08:01:38Z</time>
      </trkpt>
      <trkpt lat="45.25634" lon="5.54684">
        <ele>941.2</ele>
        <time>2011-08-31T08:01:40Z</time>
      </trkpt>
      <trkpt lat="45.25636" lon="5.54677">
        <ele>941.3</ele>
        <time>2011-08-31T08:01:43Z</time>
      </trkpt>
      <trkpt lat="45.25639" lon="5.5467">
        <ele>941.6</ele>
        <time>2011-08-31T08:01:46Z</time>
      </trkpt>
      <trkpt lat="45.25641" lon="5.54664">
        <ele>941.6</ele>
        <time>2011-08-31T08:01:49Z</time>
      </trkpt>
      <trkpt lat="45.25646" lon="5.54657">
        <ele>940.9</ele>
        <time>2011-08-31T08:01:52Z</time>
      </trkpt>
      <trkpt lat="45.2565" lon="5.5465">
        <ele>940.4</ele>
        <time>2011-08-31T08:01:55Z</time>
      </trkpt>
      <trkpt lat="45.25652" lon="5.54643">
        <ele>939.7</ele>
        <time>2011-08-31T08:01:58Z</time>
      </trkpt>
      <trkpt lat="45.25654" lon="5.54636">
        <ele>939.8</ele>
        <time>2011-08-31T08:02:01Z</time>
      </trkpt>
      <trkpt lat="45.25658" lon="5.54628">
        <ele>939</ele>
        <time>2011-08-31T08:02:04Z</time>
      </trkpt>
      <trkpt lat="45.25661" lon="5.5462">
        <ele>938.2</ele>
        <time>2011-08-31T08:02:06Z</time>
      </trkpt>
      <trkpt lat="45.25661" lon="5.54611">
        <ele>937</ele>
        <time>2011-08-31T08:02:08Z</time>
      </trkpt>
      <trkpt lat="45.25661" lon="5.54601">
        <ele>935.8</ele>
        <time>2011-08-31T08:02:10Z</time>
      </trkpt>
      <trkpt lat="45.2566" lon="5.54589">
        <ele>935.4</ele>
        <time>2011-08-31T08:02:12Z</time>
      </trkpt>
      <trkpt lat="45.25657" lon="5.54584">
        <ele>934.7</ele>
        <time>2011-08-31T08:02:13Z</time>
      </trkpt>
      <trkpt lat="45.25652" lon="5.54574">
        <ele>933.8</ele>
        <time>2011-08-31T08:02:15Z</time>
      </trkpt>
      <trkpt lat="45.25644" lon="5.54568">
        <ele>932.9</ele>
        <time>2011-08-31T08:02:17Z</time>
      </trkpt>
      <trkpt lat="45.25636" lon="5.54563">
        <ele>932</ele>
        <time>2011-08-31T08:02:19Z</time>
      </trkpt>
      <trkpt lat="45.25629" lon="5.5456">
        <ele>931.4</ele>
        <time>2011-08-31T08:02:21Z</time>
      </trkpt>
      <trkpt lat="45.25624" lon="5.54558">
        <ele>930.5</ele>
        <time>2011-08-31T08:02:22Z</time>
      </trkpt>
      <trkpt lat="45.25617" lon="5.54558">
        <ele>929.4</ele>
        <time>2011-08-31T08:02:24Z</time>
      </trkpt>
      <trkpt lat="45.2562" lon="5.54564">
        <ele>923.4</ele>
        <time>2011-08-31T08:03:17Z</time>
      </trkpt>
      <trkpt lat="45.25625" lon="5.54561">
        <ele>922.9</ele>
        <time>2011-08-31T08:03:21Z</time>
      </trkpt>
      <trkpt lat="45.2563" lon="5.54555">
        <ele>922.8</ele>
        <time>2011-08-31T08:03:24Z</time>
      </trkpt>
      <trkpt lat="45.25635" lon="5.5455">
        <ele>921.8</ele>
        <time>2011-08-31T08:03:27Z</time>
      </trkpt>
      <trkpt lat="45.25639" lon="5.54547">
        <ele>921.7</ele>
        <time>2011-08-31T08:03:29Z</time>
      </trkpt>
      <trkpt lat="45.25645" lon="5.54543">
        <ele>921.9</ele>
        <time>2011-08-31T08:03:32Z</time>
      </trkpt>
      <trkpt lat="45.2565" lon="5.5454">
        <ele>921.8</ele>
        <time>2011-08-31T08:03:34Z</time>
      </trkpt>
      <trkpt lat="45.25654" lon="5.54536">
        <ele>921.9</ele>
        <time>2011-08-31T08:03:36Z</time>
      </trkpt>
      <trkpt lat="45.25659" lon="5.54532">
        <ele>922</ele>
        <time>2011-08-31T08:03:39Z</time>
      </trkpt>
      <trkpt lat="45.25664" lon="5.54527">
        <ele>922</ele>
        <time>2011-08-31T08:03:42Z</time>
      </trkpt>
      <trkpt lat="45.2567" lon="5.54525">
        <ele>922.1</ele>
        <time>2011-08-31T08:03:45Z</time>
      </trkpt>
      <trkpt lat="45.25675" lon="5.54523">
        <ele>922.7</ele>
        <time>2011-08-31T08:03:47Z</time>
      </trkpt>
      <trkpt lat="45.2568" lon="5.5452">
        <ele>923.2</ele>
        <time>2011-08-31T08:03:49Z</time>
      </trkpt>
      <trkpt lat="45.25684" lon="5.54517">
        <ele>923.5</ele>
        <time>2011-08-31T08:03:51Z</time>
      </trkpt>
      <trkpt lat="45.25689" lon="5.54515">
        <ele>923.8</ele>
        <time>2011-08-31T08:03:53Z</time>
      </trkpt>
      <trkpt lat="45.25694" lon="5.54514">
        <ele>923.7</ele>
        <time>2011-08-31T08:03:56Z</time>
      </trkpt>
      <trkpt lat="45.257" lon="5.54514">
        <ele>923.7</ele>
        <time>2011-08-31T08:03:59Z</time>
      </trkpt>
      <trkpt lat="45.25707" lon="5.54517">
        <ele>923.5</ele>
        <time>2011-08-31T08:04:02Z</time>
      </trkpt>
      <trkpt lat="45.25712" lon="5.54519">
        <ele>923.4</ele>
        <time>2011-08-31T08:04:04Z</time>
      </trkpt>
      <trkpt lat="45.25717" lon="5.54523">
        <ele>923.6</ele>
        <time>2011-08-31T08:04:06Z</time>
      </trkpt>
      <trkpt lat="45.25721" lon="5.54526">
        <ele>923.3</ele>
        <time>2011-08-31T08:04:09Z</time>
      </trkpt>
      <trkpt lat="45.25723" lon="5.54526">
        <ele>922.5</ele>
        <time>2011-08-31T08:04:44Z</time>
      </trkpt>
      <trkpt lat="45.25727" lon="5.54532">
        <ele>922.1</ele>
        <time>2011-08-31T08:04:46Z</time>
      </trkpt>
      <trkpt lat="45.2573" lon="5.54539">
        <ele>922</ele>
        <time>2011-08-31T08:04:48Z</time>
      </trkpt>
      <trkpt lat="45.25732" lon="5.54546">
        <ele>921.3</ele>
        <time>2011-08-31T08:04:50Z</time>
      </trkpt>
      <trkpt lat="45.25736" lon="5.54554">
        <ele>920.3</ele>
        <time>2011-08-31T08:04:52Z</time>
      </trkpt>
      <trkpt lat="45.25739" lon="5.54562">
        <ele>919.7</ele>
        <time>2011-08-31T08:04:54Z</time>
      </trkpt>
      <trkpt lat="45.25742" lon="5.54572">
        <ele>919.1</ele>
        <time>2011-08-31T08:04:56Z</time>
      </trkpt>
      <trkpt lat="45.25744" lon="5.54583">
        <ele>918.4</ele>
        <time>2011-08-31T08:04:58Z</time>
      </trkpt>
      <trkpt lat="45.25746" lon="5.54593">
        <ele>917.6</ele>
        <time>2011-08-31T08:05:00Z</time>
      </trkpt>
      <trkpt lat="45.25749" lon="5.54603">
        <ele>916.6</ele>
        <time>2011-08-31T08:05:02Z</time>
      </trkpt>
      <trkpt lat="45.25752" lon="5.54612">
        <ele>916.2</ele>
        <time>2011-08-31T08:05:04Z</time>
      </trkpt>
      <trkpt lat="45.25756" lon="5.54621">
        <ele>916</ele>
        <time>2011-08-31T08:05:06Z</time>
      </trkpt>
      <trkpt lat="45.25759" lon="5.54628">
        <ele>915.6</ele>
        <time>2011-08-31T08:05:08Z</time>
      </trkpt>
      <trkpt lat="45.25761" lon="5.54635">
        <ele>915.7</ele>
        <time>2011-08-31T08:05:10Z</time>
      </trkpt>
      <trkpt lat="45.25764" lon="5.54643">
        <ele>915.3</ele>
        <time>2011-08-31T08:05:14Z</time>
      </trkpt>
      <trkpt lat="45.25769" lon="5.54646">
        <ele>915.6</ele>
        <time>2011-08-31T08:05:17Z</time>
      </trkpt>
      <trkpt lat="45.25774" lon="5.54643">
        <ele>915.5</ele>
        <time>2011-08-31T08:05:20Z</time>
      </trkpt>
      <trkpt lat="45.25779" lon="5.54636">
        <ele>913.4</ele>
        <time>2011-08-31T08:05:22Z</time>
      </trkpt>
      <trkpt lat="45.25783" lon="5.5463">
        <ele>911.8</ele>
        <time>2011-08-31T08:05:23Z</time>
      </trkpt>
      <trkpt lat="45.25786" lon="5.54625">
        <ele>910.3</ele>
        <time>2011-08-31T08:05:24Z</time>
      </trkpt>
      <trkpt lat="45.25792" lon="5.54619">
        <ele>908</ele>
        <time>2011-08-31T08:05:26Z</time>
      </trkpt>
      <trkpt lat="45.25795" lon="5.54614">
        <ele>906.4</ele>
        <time>2011-08-31T08:05:27Z</time>
      </trkpt>
      <trkpt lat="45.25801" lon="5.54605">
        <ele>904.2</ele>
        <time>2011-08-31T08:05:29Z</time>
      </trkpt>
      <trkpt lat="45.25805" lon="5.54598">
        <ele>902.9</ele>
        <time>2011-08-31T08:05:31Z</time>
      </trkpt>
      <trkpt lat="45.25811" lon="5.5459">
        <ele>903.7</ele>
        <time>2011-08-31T08:05:33Z</time>
      </trkpt>
      <trkpt lat="45.25815" lon="5.54584">
        <ele>904.1</ele>
        <time>2011-08-31T08:05:34Z</time>
      </trkpt>
      <trkpt lat="45.25818" lon="5.54579">
        <ele>904.5</ele>
        <time>2011-08-31T08:05:35Z</time>
      </trkpt>
      <trkpt lat="45.25821" lon="5.54574">
        <ele>904.7</ele>
        <time>2011-08-31T08:05:36Z</time>
      </trkpt>
      <trkpt lat="45.25827" lon="5.54567">
        <ele>903.4</ele>
        <time>2011-08-31T08:05:38Z</time>
      </trkpt>
      <trkpt lat="45.25831" lon="5.54561">
        <ele>901</ele>
        <time>2011-08-31T08:05:40Z</time>
      </trkpt>
      <trkpt lat="45.25834" lon="5.54555">
        <ele>900.5</ele>
        <time>2011-08-31T08:05:42Z</time>
      </trkpt>
      <trkpt lat="45.25838" lon="5.54549">
        <ele>900.6</ele>
        <time>2011-08-31T08:05:44Z</time>
      </trkpt>
      <trkpt lat="45.25843" lon="5.54543">
        <ele>901.1</ele>
        <time>2011-08-31T08:05:46Z</time>
      </trkpt>
      <trkpt lat="45.25851" lon="5.54537">
        <ele>900.5</ele>
        <time>2011-08-31T08:05:48Z</time>
      </trkpt>
      <trkpt lat="45.25855" lon="5.54534">
        <ele>898.5</ele>
        <time>2011-08-31T08:05:49Z</time>
      </trkpt>
      <trkpt lat="45.2586" lon="5.54529">
        <ele>896.7</ele>
        <time>2011-08-31T08:05:50Z</time>
      </trkpt>
      <trkpt lat="45.25864" lon="5.54525">
        <ele>895</ele>
        <time>2011-08-31T08:05:51Z</time>
      </trkpt>
      <trkpt lat="45.25868" lon="5.54522">
        <ele>893.2</ele>
        <time>2011-08-31T08:05:52Z</time>
      </trkpt>
      <trkpt lat="45.25872" lon="5.54515">
        <ele>890.3</ele>
        <time>2011-08-31T08:05:54Z</time>
      </trkpt>
      <trkpt lat="45.25877" lon="5.54507">
        <ele>887.3</ele>
        <time>2011-08-31T08:05:56Z</time>
      </trkpt>
      <trkpt lat="45.25883" lon="5.54501">
        <ele>886.5</ele>
        <time>2011-08-31T08:05:58Z</time>
      </trkpt>
      <trkpt lat="45.25889" lon="5.54496">
        <ele>885.5</ele>
        <time>2011-08-31T08:06:00Z</time>
      </trkpt>
      <trkpt lat="45.25893" lon="5.54494">
        <ele>884.6</ele>
        <time>2011-08-31T08:06:02Z</time>
      </trkpt>
      <trkpt lat="45.25899" lon="5.54496">
        <ele>881</ele>
        <time>2011-08-31T08:06:27Z</time>
      </trkpt>
      <trkpt lat="45.25903" lon="5.54494">
        <ele>880.5</ele>
        <time>2011-08-31T08:06:33Z</time>
      </trkpt>
      <trkpt lat="45.25906" lon="5.54489">
        <ele>880.7</ele>
        <time>2011-08-31T08:06:40Z</time>
      </trkpt>
      <trkpt lat="45.2591" lon="5.54486">
        <ele>881.5</ele>
        <time>2011-08-31T08:06:45Z</time>
      </trkpt>
      <trkpt lat="45.25915" lon="5.54482">
        <ele>881.7</ele>
        <time>2011-08-31T08:06:49Z</time>
      </trkpt>
      <trkpt lat="45.2592" lon="5.5448">
        <ele>882.3</ele>
        <time>2011-08-31T08:06:54Z</time>
      </trkpt>
      <trkpt lat="45.25924" lon="5.54476">
        <ele>882.6</ele>
        <time>2011-08-31T08:06:58Z</time>
      </trkpt>
      <trkpt lat="45.25928" lon="5.54472">
        <ele>882.8</ele>
        <time>2011-08-31T08:07:02Z</time>
      </trkpt>
      <trkpt lat="45.25932" lon="5.54468">
        <ele>882.4</ele>
        <time>2011-08-31T08:07:07Z</time>
      </trkpt>
      <trkpt lat="45.25935" lon="5.5446">
        <ele>882.5</ele>
        <time>2011-08-31T08:07:12Z</time>
      </trkpt>
      <trkpt lat="45.25937" lon="5.54454">
        <ele>882.1</ele>
        <time>2011-08-31T08:07:15Z</time>
      </trkpt>
      <trkpt lat="45.2594" lon="5.54449">
        <ele>881.5</ele>
        <time>2011-08-31T08:07:18Z</time>
      </trkpt>
      <trkpt lat="45.25943" lon="5.54442">
        <ele>880.4</ele>
        <time>2011-08-31T08:07:21Z</time>
      </trkpt>
      <trkpt lat="45.25946" lon="5.54436">
        <ele>879.5</ele>
        <time>2011-08-31T08:07:24Z</time>
      </trkpt>
      <trkpt lat="45.2595" lon="5.5443">
        <ele>879.1</ele>
        <time>2011-08-31T08:07:27Z</time>
      </trkpt>
      <trkpt lat="45.25954" lon="5.54424">
        <ele>878.4</ele>
        <time>2011-08-31T08:07:30Z</time>
      </trkpt>
      <trkpt lat="45.25958" lon="5.54418">
        <ele>878.4</ele>
        <time>2011-08-31T08:07:33Z</time>
      </trkpt>
      <trkpt lat="45.25961" lon="5.54414">
        <ele>878.2</ele>
        <time>2011-08-31T08:07:35Z</time>
      </trkpt>
      <trkpt lat="45.25965" lon="5.54408">
        <ele>877.9</ele>
        <time>2011-08-31T08:07:37Z</time>
      </trkpt>
      <trkpt lat="45.2597" lon="5.54402">
        <ele>877.9</ele>
        <time>2011-08-31T08:07:39Z</time>
      </trkpt>
      <trkpt lat="45.25976" lon="5.54396">
        <ele>877.3</ele>
        <time>2011-08-31T08:07:41Z</time>
      </trkpt>
      <trkpt lat="45.25982" lon="5.54392">
        <ele>876.6</ele>
        <time>2011-08-31T08:07:43Z</time>
      </trkpt>
      <trkpt lat="45.25986" lon="5.54388">
        <ele>876.7</ele>
        <time>2011-08-31T08:07:45Z</time>
      </trkpt>
      <trkpt lat="45.2599" lon="5.54384">
        <ele>876.5</ele>
        <time>2011-08-31T08:07:47Z</time>
      </trkpt>
      <trkpt lat="45.25996" lon="5.54378">
        <ele>875.4</ele>
        <time>2011-08-31T08:07:49Z</time>
      </trkpt>
      <trkpt lat="45.26002" lon="5.54372">
        <ele>874.5</ele>
        <time>2011-08-31T08:07:51Z</time>
      </trkpt>
      <trkpt lat="45.26008" lon="5.54368">
        <ele>874.5</ele>
        <time>2011-08-31T08:07:53Z</time>
      </trkpt>
      <trkpt lat="45.26014" lon="5.54364">
        <ele>874.4</ele>
        <time>2011-08-31T08:07:55Z</time>
      </trkpt>
      <trkpt lat="45.2602" lon="5.5436">
        <ele>874.5</ele>
        <time>2011-08-31T08:07:57Z</time>
      </trkpt>
      <trkpt lat="45.26025" lon="5.54353">
        <ele>874.6</ele>
        <time>2011-08-31T08:07:59Z</time>
      </trkpt>
      <trkpt lat="45.26031" lon="5.54345">
        <ele>874.4</ele>
        <time>2011-08-31T08:08:01Z</time>
      </trkpt>
      <trkpt lat="45.26035" lon="5.54336">
        <ele>874</ele>
        <time>2011-08-31T08:08:03Z</time>
      </trkpt>
      <trkpt lat="45.2604" lon="5.54326">
        <ele>874</ele>
        <time>2011-08-31T08:08:05Z</time>
      </trkpt>
      <trkpt lat="45.26042" lon="5.54317">
        <ele>873.3</ele>
        <time>2011-08-31T08:08:07Z</time>
      </trkpt>
      <trkpt lat="45.26043" lon="5.54307">
        <ele>872.9</ele>
        <time>2011-08-31T08:08:09Z</time>
      </trkpt>
      <trkpt lat="45.26044" lon="5.54299">
        <ele>872.9</ele>
        <time>2011-08-31T08:08:11Z</time>
      </trkpt>
      <trkpt lat="45.26044" lon="5.54291">
        <ele>872.1</ele>
        <time>2011-08-31T08:08:13Z</time>
      </trkpt>
      <trkpt lat="45.26045" lon="5.54283">
        <ele>872.1</ele>
        <time>2011-08-31T08:08:15Z</time>
      </trkpt>
      <trkpt lat="45.26048" lon="5.54276">
        <ele>871.8</ele>
        <time>2011-08-31T08:08:17Z</time>
      </trkpt>
      <trkpt lat="45.2605" lon="5.5427">
        <ele>871.3</ele>
        <time>2011-08-31T08:08:19Z</time>
      </trkpt>
      <trkpt lat="45.26054" lon="5.54264">
        <ele>871.2</ele>
        <time>2011-08-31T08:08:21Z</time>
      </trkpt>
      <trkpt lat="45.26058" lon="5.54259">
        <ele>871.6</ele>
        <time>2011-08-31T08:08:23Z</time>
      </trkpt>
      <trkpt lat="45.26065" lon="5.54257">
        <ele>871.6</ele>
        <time>2011-08-31T08:08:25Z</time>
      </trkpt>
      <trkpt lat="45.26071" lon="5.54257">
        <ele>871.1</ele>
        <time>2011-08-31T08:08:27Z</time>
      </trkpt>
      <trkpt lat="45.26077" lon="5.54258">
        <ele>870.8</ele>
        <time>2011-08-31T08:08:29Z</time>
      </trkpt>
      <trkpt lat="45.26083" lon="5.54262">
        <ele>870</ele>
        <time>2011-08-31T08:08:31Z</time>
      </trkpt>
      <trkpt lat="45.26088" lon="5.54265">
        <ele>869.7</ele>
        <time>2011-08-31T08:08:32Z</time>
      </trkpt>
      <trkpt lat="45.26096" lon="5.5427">
        <ele>868.7</ele>
        <time>2011-08-31T08:08:34Z</time>
      </trkpt>
      <trkpt lat="45.261" lon="5.54273">
        <ele>868.1</ele>
        <time>2011-08-31T08:08:35Z</time>
      </trkpt>
      <trkpt lat="45.26104" lon="5.54275">
        <ele>867.6</ele>
        <time>2011-08-31T08:08:36Z</time>
      </trkpt>
      <trkpt lat="45.26111" lon="5.54281">
        <ele>866.6</ele>
        <time>2011-08-31T08:08:38Z</time>
      </trkpt>
      <trkpt lat="45.26118" lon="5.54286">
        <ele>866</ele>
        <time>2011-08-31T08:08:40Z</time>
      </trkpt>
      <trkpt lat="45.26126" lon="5.54289">
        <ele>865.2</ele>
        <time>2011-08-31T08:08:42Z</time>
      </trkpt>
      <trkpt lat="45.26134" lon="5.54295">
        <ele>864.3</ele>
        <time>2011-08-31T08:08:44Z</time>
      </trkpt>
      <trkpt lat="45.26138" lon="5.54298">
        <ele>863.8</ele>
        <time>2011-08-31T08:08:45Z</time>
      </trkpt>
      <trkpt lat="45.26142" lon="5.54301">
        <ele>863.5</ele>
        <time>2011-08-31T08:08:46Z</time>
      </trkpt>
      <trkpt lat="45.26148" lon="5.54307">
        <ele>862.6</ele>
        <time>2011-08-31T08:08:48Z</time>
      </trkpt>
      <trkpt lat="45.26155" lon="5.54313">
        <ele>861.9</ele>
        <time>2011-08-31T08:08:50Z</time>
      </trkpt>
      <trkpt lat="45.26158" lon="5.54317">
        <ele>861.8</ele>
        <time>2011-08-31T08:08:51Z</time>
      </trkpt>
      <trkpt lat="45.26163" lon="5.54321">
        <ele>861.4</ele>
        <time>2011-08-31T08:08:52Z</time>
      </trkpt>
      <trkpt lat="45.26167" lon="5.54325">
        <ele>861</ele>
        <time>2011-08-31T08:08:53Z</time>
      </trkpt>
      <trkpt lat="45.26174" lon="5.54333">
        <ele>860.3</ele>
        <time>2011-08-31T08:08:55Z</time>
      </trkpt>
      <trkpt lat="45.26182" lon="5.5434">
        <ele>859.4</ele>
        <time>2011-08-31T08:08:57Z</time>
      </trkpt>
      <trkpt lat="45.26186" lon="5.54344">
        <ele>858.5</ele>
        <time>2011-08-31T08:08:58Z</time>
      </trkpt>
      <trkpt lat="45.26191" lon="5.54348">
        <ele>857.3</ele>
        <time>2011-08-31T08:08:59Z</time>
      </trkpt>
      <trkpt lat="45.26195" lon="5.54352">
        <ele>857</ele>
        <time>2011-08-31T08:09:00Z</time>
      </trkpt>
      <trkpt lat="45.26199" lon="5.54356">
        <ele>856.5</ele>
        <time>2011-08-31T08:09:01Z</time>
      </trkpt>
      <trkpt lat="45.26206" lon="5.54361">
        <ele>855.5</ele>
        <time>2011-08-31T08:09:03Z</time>
      </trkpt>
      <trkpt lat="45.26213" lon="5.54368">
        <ele>854.4</ele>
        <time>2011-08-31T08:09:05Z</time>
      </trkpt>
      <trkpt lat="45.26219" lon="5.54374">
        <ele>853</ele>
        <time>2011-08-31T08:09:07Z</time>
      </trkpt>
      <trkpt lat="45.26226" lon="5.54378">
        <ele>850.7</ele>
        <time>2011-08-31T08:09:09Z</time>
      </trkpt>
      <trkpt lat="45.26232" lon="5.54382">
        <ele>848.5</ele>
        <time>2011-08-31T08:09:11Z</time>
      </trkpt>
      <trkpt lat="45.26238" lon="5.54387">
        <ele>845.9</ele>
        <time>2011-08-31T08:09:13Z</time>
      </trkpt>
      <trkpt lat="45.26243" lon="5.54392">
        <ele>843.9</ele>
        <time>2011-08-31T08:09:15Z</time>
      </trkpt>
      <trkpt lat="45.26247" lon="5.54399">
        <ele>841.9</ele>
        <time>2011-08-31T08:09:17Z</time>
      </trkpt>
      <trkpt lat="45.26251" lon="5.54402">
        <ele>839.5</ele>
        <time>2011-08-31T08:09:19Z</time>
      </trkpt>
      <trkpt lat="45.26257" lon="5.54404">
        <ele>836</ele>
        <time>2011-08-31T08:09:22Z</time>
      </trkpt>
      <trkpt lat="45.26262" lon="5.54407">
        <ele>832.7</ele>
        <time>2011-08-31T08:09:24Z</time>
      </trkpt>
      <trkpt lat="45.26268" lon="5.54412">
        <ele>829.5</ele>
        <time>2011-08-31T08:09:26Z</time>
      </trkpt>
      <trkpt lat="45.26274" lon="5.54416">
        <ele>826.8</ele>
        <time>2011-08-31T08:09:28Z</time>
      </trkpt>
      <trkpt lat="45.26279" lon="5.5442">
        <ele>824.6</ele>
        <time>2011-08-31T08:09:30Z</time>
      </trkpt>
      <trkpt lat="45.26284" lon="5.54424">
        <ele>823.5</ele>
        <time>2011-08-31T08:09:32Z</time>
      </trkpt>
      <trkpt lat="45.2629" lon="5.54431">
        <ele>821.7</ele>
        <time>2011-08-31T08:09:34Z</time>
      </trkpt>
      <trkpt lat="45.26297" lon="5.54436">
        <ele>820.2</ele>
        <time>2011-08-31T08:09:36Z</time>
      </trkpt>
      <trkpt lat="45.26302" lon="5.54442">
        <ele>819</ele>
        <time>2011-08-31T08:09:38Z</time>
      </trkpt>
      <trkpt lat="45.2631" lon="5.5445">
        <ele>816.6</ele>
        <time>2011-08-31T08:09:40Z</time>
      </trkpt>
      <trkpt lat="45.26315" lon="5.54457">
        <ele>814.4</ele>
        <time>2011-08-31T08:09:41Z</time>
      </trkpt>
      <trkpt lat="45.26319" lon="5.54464">
        <ele>813.2</ele>
        <time>2011-08-31T08:09:42Z</time>
      </trkpt>
      <trkpt lat="45.26326" lon="5.54473">
        <ele>812.3</ele>
        <time>2011-08-31T08:09:44Z</time>
      </trkpt>
      <trkpt lat="45.26332" lon="5.54482">
        <ele>811</ele>
        <time>2011-08-31T08:09:46Z</time>
      </trkpt>
      <trkpt lat="45.26338" lon="5.5449">
        <ele>809.9</ele>
        <time>2011-08-31T08:09:48Z</time>
      </trkpt>
      <trkpt lat="45.26344" lon="5.54499">
        <ele>809</ele>
        <time>2011-08-31T08:09:50Z</time>
      </trkpt>
      <trkpt lat="45.26347" lon="5.54503">
        <ele>808.4</ele>
        <time>2011-08-31T08:09:51Z</time>
      </trkpt>
      <trkpt lat="45.26352" lon="5.54511">
        <ele>807.2</ele>
        <time>2011-08-31T08:09:53Z</time>
      </trkpt>
      <trkpt lat="45.26356" lon="5.54518">
        <ele>806.3</ele>
        <time>2011-08-31T08:09:55Z</time>
      </trkpt>
      <trkpt lat="45.2636" lon="5.54524">
        <ele>805.3</ele>
        <time>2011-08-31T08:09:57Z</time>
      </trkpt>
      <trkpt lat="45.26364" lon="5.54529">
        <ele>804</ele>
        <time>2011-08-31T08:09:59Z</time>
      </trkpt>
      <trkpt lat="45.26367" lon="5.54535">
        <ele>803</ele>
        <time>2011-08-31T08:10:01Z</time>
      </trkpt>
      <trkpt lat="45.26372" lon="5.54543">
        <ele>801.9</ele>
        <time>2011-08-31T08:10:03Z</time>
      </trkpt>
      <trkpt lat="45.26377" lon="5.54549">
        <ele>801</ele>
        <time>2011-08-31T08:10:05Z</time>
      </trkpt>
      <trkpt lat="45.2638" lon="5.54556">
        <ele>800.1</ele>
        <time>2011-08-31T08:10:07Z</time>
      </trkpt>
      <trkpt lat="45.26385" lon="5.54564">
        <ele>799.2</ele>
        <time>2011-08-31T08:10:09Z</time>
      </trkpt>
      <trkpt lat="45.2639" lon="5.54572">
        <ele>798.5</ele>
        <time>2011-08-31T08:10:11Z</time>
      </trkpt>
      <trkpt lat="45.26395" lon="5.5458">
        <ele>796.7</ele>
        <time>2011-08-31T08:10:13Z</time>
      </trkpt>
      <trkpt lat="45.26398" lon="5.54589">
        <ele>795.7</ele>
        <time>2011-08-31T08:10:15Z</time>
      </trkpt>
      <trkpt lat="45.26401" lon="5.54597">
        <ele>793.7</ele>
        <time>2011-08-31T08:10:17Z</time>
      </trkpt>
      <trkpt lat="45.26404" lon="5.54606">
        <ele>792.4</ele>
        <time>2011-08-31T08:10:19Z</time>
      </trkpt>
      <trkpt lat="45.26408" lon="5.54617">
        <ele>791</ele>
        <time>2011-08-31T08:10:21Z</time>
      </trkpt>
      <trkpt lat="45.26412" lon="5.54622">
        <ele>790.1</ele>
        <time>2011-08-31T08:10:22Z</time>
      </trkpt>
      <trkpt lat="45.26417" lon="5.54631">
        <ele>788.8</ele>
        <time>2011-08-31T08:10:24Z</time>
      </trkpt>
      <trkpt lat="45.26422" lon="5.54639">
        <ele>787.5</ele>
        <time>2011-08-31T08:10:26Z</time>
      </trkpt>
      <trkpt lat="45.26426" lon="5.54644">
        <ele>786</ele>
        <time>2011-08-31T08:10:28Z</time>
      </trkpt>
      <trkpt lat="45.26431" lon="5.54647">
        <ele>784.8</ele>
        <time>2011-08-31T08:10:31Z</time>
      </trkpt>
      <trkpt lat="45.26436" lon="5.54651">
        <ele>783.2</ele>
        <time>2011-08-31T08:10:34Z</time>
      </trkpt>
      <trkpt lat="45.2644" lon="5.54654">
        <ele>781.7</ele>
        <time>2011-08-31T08:10:36Z</time>
      </trkpt>
      <trkpt lat="45.26444" lon="5.54658">
        <ele>780.1</ele>
        <time>2011-08-31T08:10:38Z</time>
      </trkpt>
      <trkpt lat="45.2645" lon="5.54662">
        <ele>779.2</ele>
        <time>2011-08-31T08:10:40Z</time>
      </trkpt>
      <trkpt lat="45.26456" lon="5.54667">
        <ele>778.5</ele>
        <time>2011-08-31T08:10:42Z</time>
      </trkpt>
      <trkpt lat="45.2646" lon="5.54672">
        <ele>777.4</ele>
        <time>2011-08-31T08:10:44Z</time>
      </trkpt>
      <trkpt lat="45.26467" lon="5.54673">
        <ele>774.7</ele>
        <time>2011-08-31T08:10:46Z</time>
      </trkpt>
      <trkpt lat="45.26472" lon="5.54676">
        <ele>774.1</ele>
        <time>2011-08-31T08:10:48Z</time>
      </trkpt>
      <trkpt lat="45.26478" lon="5.5468">
        <ele>773.2</ele>
        <time>2011-08-31T08:10:50Z</time>
      </trkpt>
      <trkpt lat="45.26483" lon="5.54684">
        <ele>772</ele>
        <time>2011-08-31T08:10:52Z</time>
      </trkpt>
      <trkpt lat="45.26489" lon="5.54688">
        <ele>771.1</ele>
        <time>2011-08-31T08:10:54Z</time>
      </trkpt>
      <trkpt lat="45.26494" lon="5.5469">
        <ele>769.8</ele>
        <time>2011-08-31T08:10:55Z</time>
      </trkpt>
      <trkpt lat="45.26498" lon="5.54693">
        <ele>768.4</ele>
        <time>2011-08-31T08:10:56Z</time>
      </trkpt>
      <trkpt lat="45.26504" lon="5.54701">
        <ele>767</ele>
        <time>2011-08-31T08:10:58Z</time>
      </trkpt>
      <trkpt lat="45.26506" lon="5.54706">
        <ele>765.2</ele>
        <time>2011-08-31T08:11:00Z</time>
      </trkpt>
      <trkpt lat="45.26511" lon="5.54708">
        <ele>763.9</ele>
        <time>2011-08-31T08:11:02Z</time>
      </trkpt>
      <trkpt lat="45.26517" lon="5.54711">
        <ele>762.9</ele>
        <time>2011-08-31T08:11:05Z</time>
      </trkpt>
      <trkpt lat="45.26521" lon="5.54714">
        <ele>762</ele>
        <time>2011-08-31T08:11:07Z</time>
      </trkpt>
      <trkpt lat="45.26526" lon="5.5472">
        <ele>760.9</ele>
        <time>2011-08-31T08:11:09Z</time>
      </trkpt>
      <trkpt lat="45.26532" lon="5.54724">
        <ele>759.7</ele>
        <time>2011-08-31T08:11:11Z</time>
      </trkpt>
      <trkpt lat="45.26536" lon="5.54728">
        <ele>758.8</ele>
        <time>2011-08-31T08:11:13Z</time>
      </trkpt>
      <trkpt lat="45.2654" lon="5.54732">
        <ele>758.1</ele>
        <time>2011-08-31T08:11:15Z</time>
      </trkpt>
      <trkpt lat="45.26544" lon="5.54737">
        <ele>757.2</ele>
        <time>2011-08-31T08:11:17Z</time>
      </trkpt>
      <trkpt lat="45.26549" lon="5.54742">
        <ele>755.8</ele>
        <time>2011-08-31T08:11:19Z</time>
      </trkpt>
      <trkpt lat="45.26555" lon="5.54747">
        <ele>754.9</ele>
        <time>2011-08-31T08:11:21Z</time>
      </trkpt>
      <trkpt lat="45.26561" lon="5.54753">
        <ele>754.5</ele>
        <time>2011-08-31T08:11:23Z</time>
      </trkpt>
      <trkpt lat="45.26566" lon="5.54757">
        <ele>753.6</ele>
        <time>2011-08-31T08:11:25Z</time>
      </trkpt>
      <trkpt lat="45.26571" lon="5.54762">
        <ele>752.6</ele>
        <time>2011-08-31T08:11:27Z</time>
      </trkpt>
      <trkpt lat="45.26577" lon="5.54769">
        <ele>751.4</ele>
        <time>2011-08-31T08:11:29Z</time>
      </trkpt>
      <trkpt lat="45.26582" lon="5.54776">
        <ele>749.9</ele>
        <time>2011-08-31T08:11:31Z</time>
      </trkpt>
      <trkpt lat="45.26586" lon="5.54784">
        <ele>748.6</ele>
        <time>2011-08-31T08:11:33Z</time>
      </trkpt>
      <trkpt lat="45.26592" lon="5.54791">
        <ele>747.7</ele>
        <time>2011-08-31T08:11:35Z</time>
      </trkpt>
      <trkpt lat="45.26598" lon="5.54797">
        <ele>746.8</ele>
        <time>2011-08-31T08:11:37Z</time>
      </trkpt>
      <trkpt lat="45.26603" lon="5.54804">
        <ele>745.5</ele>
        <time>2011-08-31T08:11:39Z</time>
      </trkpt>
      <trkpt lat="45.26609" lon="5.5481">
        <ele>744.3</ele>
        <time>2011-08-31T08:11:41Z</time>
      </trkpt>
      <trkpt lat="45.26614" lon="5.54816">
        <ele>742.8</ele>
        <time>2011-08-31T08:11:43Z</time>
      </trkpt>
      <trkpt lat="45.26617" lon="5.54822">
        <ele>741.6</ele>
        <time>2011-08-31T08:11:44Z</time>
      </trkpt>
      <trkpt lat="45.26621" lon="5.54825">
        <ele>740.7</ele>
        <time>2011-08-31T08:11:45Z</time>
      </trkpt>
      <trkpt lat="45.26625" lon="5.5483">
        <ele>738.6</ele>
        <time>2011-08-31T08:11:46Z</time>
      </trkpt>
      <trkpt lat="45.26629" lon="5.54834">
        <ele>737.6</ele>
        <time>2011-08-31T08:11:47Z</time>
      </trkpt>
      <trkpt lat="45.26634" lon="5.5484">
        <ele>736.2</ele>
        <time>2011-08-31T08:11:49Z</time>
      </trkpt>
      <trkpt lat="45.2664" lon="5.54848">
        <ele>734.8</ele>
        <time>2011-08-31T08:11:51Z</time>
      </trkpt>
      <trkpt lat="45.26646" lon="5.54855">
        <ele>733.2</ele>
        <time>2011-08-31T08:11:53Z</time>
      </trkpt>
      <trkpt lat="45.26651" lon="5.54862">
        <ele>731.9</ele>
        <time>2011-08-31T08:11:55Z</time>
      </trkpt>
      <trkpt lat="45.26656" lon="5.54869">
        <ele>730.1</ele>
        <time>2011-08-31T08:11:57Z</time>
      </trkpt>
      <trkpt lat="45.2666" lon="5.54876">
        <ele>728.3</ele>
        <time>2011-08-31T08:11:59Z</time>
      </trkpt>
      <trkpt lat="45.26663" lon="5.54883">
        <ele>726.4</ele>
        <time>2011-08-31T08:12:01Z</time>
      </trkpt>
      <trkpt lat="45.26666" lon="5.54891">
        <ele>724.8</ele>
        <time>2011-08-31T08:12:03Z</time>
      </trkpt>
      <trkpt lat="45.2667" lon="5.54902">
        <ele>723.2</ele>
        <time>2011-08-31T08:12:05Z</time>
      </trkpt>
      <trkpt lat="45.26673" lon="5.5491">
        <ele>721.3</ele>
        <time>2011-08-31T08:12:07Z</time>
      </trkpt>
      <trkpt lat="45.26674" lon="5.54917">
        <ele>718.8</ele>
        <time>2011-08-31T08:12:09Z</time>
      </trkpt>
      <trkpt lat="45.26676" lon="5.54925">
        <ele>716.7</ele>
        <time>2011-08-31T08:12:11Z</time>
      </trkpt>
      <trkpt lat="45.26677" lon="5.54934">
        <ele>715</ele>
        <time>2011-08-31T08:12:13Z</time>
      </trkpt>
      <trkpt lat="45.2668" lon="5.54943">
        <ele>713.3</ele>
        <time>2011-08-31T08:12:15Z</time>
      </trkpt>
      <trkpt lat="45.26681" lon="5.54953">
        <ele>711.6</ele>
        <time>2011-08-31T08:12:17Z</time>
      </trkpt>
      <trkpt lat="45.26683" lon="5.54962">
        <ele>710</ele>
        <time>2011-08-31T08:12:19Z</time>
      </trkpt>
      <trkpt lat="45.26686" lon="5.54974">
        <ele>708.1</ele>
        <time>2011-08-31T08:12:21Z</time>
      </trkpt>
      <trkpt lat="45.26688" lon="5.54983">
        <ele>706.1</ele>
        <time>2011-08-31T08:12:23Z</time>
      </trkpt>
      <trkpt lat="45.26691" lon="5.54989">
        <ele>704.2</ele>
        <time>2011-08-31T08:12:24Z</time>
      </trkpt>
      <trkpt lat="45.26694" lon="5.54996">
        <ele>701.1</ele>
        <time>2011-08-31T08:12:25Z</time>
      </trkpt>
      <trkpt lat="45.26696" lon="5.55003">
        <ele>700</ele>
        <time>2011-08-31T08:12:26Z</time>
      </trkpt>
      <trkpt lat="45.26697" lon="5.55014">
        <ele>697.9</ele>
        <time>2011-08-31T08:12:28Z</time>
      </trkpt>
      <trkpt lat="45.26698" lon="5.55025">
        <ele>696.6</ele>
        <time>2011-08-31T08:12:30Z</time>
      </trkpt>
      <trkpt lat="45.26699" lon="5.55036">
        <ele>695.5</ele>
        <time>2011-08-31T08:12:32Z</time>
      </trkpt>
      <trkpt lat="45.267" lon="5.55046">
        <ele>694.3</ele>
        <time>2011-08-31T08:12:34Z</time>
      </trkpt>
      <trkpt lat="45.267" lon="5.55054">
        <ele>692.9</ele>
        <time>2011-08-31T08:12:36Z</time>
      </trkpt>
      <trkpt lat="45.267" lon="5.55062">
        <ele>691.8</ele>
        <time>2011-08-31T08:12:38Z</time>
      </trkpt>
      <trkpt lat="45.26699" lon="5.55072">
        <ele>690.6</ele>
        <time>2011-08-31T08:12:40Z</time>
      </trkpt>
      <trkpt lat="45.26696" lon="5.55084">
        <ele>688.2</ele>
        <time>2011-08-31T08:12:42Z</time>
      </trkpt>
      <trkpt lat="45.26694" lon="5.55092">
        <ele>687.4</ele>
        <time>2011-08-31T08:12:44Z</time>
      </trkpt>
      <trkpt lat="45.2669" lon="5.55104">
        <ele>686.3</ele>
        <time>2011-08-31T08:12:46Z</time>
      </trkpt>
      <trkpt lat="45.26688" lon="5.5511">
        <ele>685.7</ele>
        <time>2011-08-31T08:12:47Z</time>
      </trkpt>
      <trkpt lat="45.26685" lon="5.55115">
        <ele>685.1</ele>
        <time>2011-08-31T08:12:48Z</time>
      </trkpt>
      <trkpt lat="45.26682" lon="5.55121">
        <ele>684.8</ele>
        <time>2011-08-31T08:12:49Z</time>
      </trkpt>
      <trkpt lat="45.26678" lon="5.5513">
        <ele>683.9</ele>
        <time>2011-08-31T08:12:51Z</time>
      </trkpt>
      <trkpt lat="45.26671" lon="5.55139">
        <ele>683.1</ele>
        <time>2011-08-31T08:12:53Z</time>
      </trkpt>
      <trkpt lat="45.26668" lon="5.55144">
        <ele>682.5</ele>
        <time>2011-08-31T08:12:54Z</time>
      </trkpt>
      <trkpt lat="45.26664" lon="5.5515">
        <ele>682.1</ele>
        <time>2011-08-31T08:12:55Z</time>
      </trkpt>
      <trkpt lat="45.26661" lon="5.55156">
        <ele>681.5</ele>
        <time>2011-08-31T08:12:56Z</time>
      </trkpt>
      <trkpt lat="45.26657" lon="5.55162">
        <ele>681.1</ele>
        <time>2011-08-31T08:12:57Z</time>
      </trkpt>
      <trkpt lat="45.26654" lon="5.55168">
        <ele>680.7</ele>
        <time>2011-08-31T08:12:58Z</time>
      </trkpt>
      <trkpt lat="45.2665" lon="5.55172">
        <ele>680.6</ele>
        <time>2011-08-31T08:12:59Z</time>
      </trkpt>
      <trkpt lat="45.26646" lon="5.55177">
        <ele>680.4</ele>
        <time>2011-08-31T08:13:00Z</time>
      </trkpt>
      <trkpt lat="45.26642" lon="5.55181">
        <ele>680.3</ele>
        <time>2011-08-31T08:13:01Z</time>
      </trkpt>
      <trkpt lat="45.26638" lon="5.55184">
        <ele>680.3</ele>
        <time>2011-08-31T08:13:02Z</time>
      </trkpt>
      <trkpt lat="45.26629" lon="5.55188">
        <ele>680.3</ele>
        <time>2011-08-31T08:13:04Z</time>
      </trkpt>
      <trkpt lat="45.26624" lon="5.55191">
        <ele>680.3</ele>
        <time>2011-08-31T08:13:05Z</time>
      </trkpt>
      <trkpt lat="45.26617" lon="5.55195">
        <ele>680.2</ele>
        <time>2011-08-31T08:13:07Z</time>
      </trkpt>
      <trkpt lat="45.26613" lon="5.55197">
        <ele>680.2</ele>
        <time>2011-08-31T08:13:09Z</time>
      </trkpt>
      <trkpt lat="45.26617" lon="5.55199">
        <ele>681.2</ele>
        <time>2011-08-31T08:13:22Z</time>
      </trkpt>
      <trkpt lat="45.26634" lon="5.55216">
        <ele>686.3</ele>
        <time>2011-08-31T08:14:20Z</time>
      </trkpt>
      <trkpt lat="45.26634" lon="5.55209">
        <ele>688.5</ele>
        <time>2011-08-31T08:14:49Z</time>
      </trkpt>
      <trkpt lat="45.26635" lon="5.55202">
        <ele>688.2</ele>
        <time>2011-08-31T08:14:56Z</time>
      </trkpt>
      <trkpt lat="45.2664" lon="5.55201">
        <ele>686.2</ele>
        <time>2011-08-31T08:15:04Z</time>
      </trkpt>
      <trkpt lat="45.26645" lon="5.552">
        <ele>683.4</ele>
        <time>2011-08-31T08:15:07Z</time>
      </trkpt>
      <trkpt lat="45.2665" lon="5.55199">
        <ele>680.5</ele>
        <time>2011-08-31T08:15:11Z</time>
      </trkpt>
      <trkpt lat="45.26654" lon="5.552">
        <ele>680.4</ele>
        <time>2011-08-31T08:15:16Z</time>
      </trkpt>
      <trkpt lat="45.2666" lon="5.55201">
        <ele>679.1</ele>
        <time>2011-08-31T08:15:20Z</time>
      </trkpt>
      <trkpt lat="45.26666" lon="5.55203">
        <ele>678</ele>
        <time>2011-08-31T08:15:23Z</time>
      </trkpt>
      <trkpt lat="45.2667" lon="5.55207">
        <ele>677.6</ele>
        <time>2011-08-31T08:15:30Z</time>
      </trkpt>
      <trkpt lat="45.26674" lon="5.55211">
        <ele>676.9</ele>
        <time>2011-08-31T08:15:34Z</time>
      </trkpt>
      <trkpt lat="45.26679" lon="5.55214">
        <ele>677</ele>
        <time>2011-08-31T08:15:38Z</time>
      </trkpt>
      <trkpt lat="45.26684" lon="5.5522">
        <ele>674.8</ele>
        <time>2011-08-31T08:15:41Z</time>
      </trkpt>
      <trkpt lat="45.26689" lon="5.55221">
        <ele>673.9</ele>
        <time>2011-08-31T08:15:46Z</time>
      </trkpt>
      <trkpt lat="45.26694" lon="5.55224">
        <ele>672.5</ele>
        <time>2011-08-31T08:15:51Z</time>
      </trkpt>
      <trkpt lat="45.26698" lon="5.55228">
        <ele>671.1</ele>
        <time>2011-08-31T08:15:54Z</time>
      </trkpt>
      <trkpt lat="45.26703" lon="5.5523">
        <ele>671</ele>
        <time>2011-08-31T08:15:59Z</time>
      </trkpt>
      <trkpt lat="45.26707" lon="5.55232">
        <ele>671.2</ele>
        <time>2011-08-31T08:16:04Z</time>
      </trkpt>
      <trkpt lat="45.26712" lon="5.55232">
        <ele>671.4</ele>
        <time>2011-08-31T08:16:09Z</time>
      </trkpt>
      <trkpt lat="45.26717" lon="5.55234">
        <ele>672.1</ele>
        <time>2011-08-31T08:16:14Z</time>
      </trkpt>
      <trkpt lat="45.26721" lon="5.55235">
        <ele>672.3</ele>
        <time>2011-08-31T08:16:18Z</time>
      </trkpt>
      <trkpt lat="45.26726" lon="5.55237">
        <ele>671.5</ele>
        <time>2011-08-31T08:16:22Z</time>
      </trkpt>
      <trkpt lat="45.2673" lon="5.55241">
        <ele>669.8</ele>
        <time>2011-08-31T08:16:27Z</time>
      </trkpt>
      <trkpt lat="45.26734" lon="5.55243">
        <ele>668.5</ele>
        <time>2011-08-31T08:16:31Z</time>
      </trkpt>
      <trkpt lat="45.26739" lon="5.55245">
        <ele>667.8</ele>
        <time>2011-08-31T08:16:35Z</time>
      </trkpt>
      <trkpt lat="45.26746" lon="5.55245">
        <ele>666.2</ele>
        <time>2011-08-31T08:17:12Z</time>
      </trkpt>
      <trkpt lat="45.26747" lon="5.55237">
        <ele>665.8</ele>
        <time>2011-08-31T08:17:16Z</time>
      </trkpt>
      <trkpt lat="45.26747" lon="5.55229">
        <ele>665.5</ele>
        <time>2011-08-31T08:17:18Z</time>
      </trkpt>
      <trkpt lat="45.26747" lon="5.55222">
        <ele>665</ele>
        <time>2011-08-31T08:17:20Z</time>
      </trkpt>
      <trkpt lat="45.26747" lon="5.55216">
        <ele>664.4</ele>
        <time>2011-08-31T08:17:22Z</time>
      </trkpt>
      <trkpt lat="45.26748" lon="5.55207">
        <ele>663.9</ele>
        <time>2011-08-31T08:17:24Z</time>
      </trkpt>
      <trkpt lat="45.2675" lon="5.55195">
        <ele>663.5</ele>
        <time>2011-08-31T08:17:26Z</time>
      </trkpt>
      <trkpt lat="45.26753" lon="5.55184">
        <ele>663.6</ele>
        <time>2011-08-31T08:17:28Z</time>
      </trkpt>
      <trkpt lat="45.26758" lon="5.55175">
        <ele>663.4</ele>
        <time>2011-08-31T08:17:30Z</time>
      </trkpt>
      <trkpt lat="45.26763" lon="5.55172">
        <ele>662.4</ele>
        <time>2011-08-31T08:17:33Z</time>
      </trkpt>
      <trkpt lat="45.26768" lon="5.55175">
        <ele>661.6</ele>
        <time>2011-08-31T08:17:37Z</time>
      </trkpt>
      <trkpt lat="45.26772" lon="5.55178">
        <ele>660.8</ele>
        <time>2011-08-31T08:17:41Z</time>
      </trkpt>
      <trkpt lat="45.26775" lon="5.55184">
        <ele>661.2</ele>
        <time>2011-08-31T08:17:43Z</time>
      </trkpt>
      <trkpt lat="45.26779" lon="5.55191">
        <ele>661.3</ele>
        <time>2011-08-31T08:17:46Z</time>
      </trkpt>
      <trkpt lat="45.26776" lon="5.55195">
        <ele>661.5</ele>
        <time>2011-08-31T08:17:57Z</time>
      </trkpt>
      <trkpt lat="45.26772" lon="5.55201">
        <ele>661.5</ele>
        <time>2011-08-31T08:18:02Z</time>
      </trkpt>
      <trkpt lat="45.26766" lon="5.55205">
        <ele>661.2</ele>
        <time>2011-08-31T08:18:05Z</time>
      </trkpt>
      <trkpt lat="45.26763" lon="5.5521">
        <ele>661.4</ele>
        <time>2011-08-31T08:18:07Z</time>
      </trkpt>
      <trkpt lat="45.26762" lon="5.55218">
        <ele>661.7</ele>
        <time>2011-08-31T08:18:09Z</time>
      </trkpt>
      <trkpt lat="45.26764" lon="5.55226">
        <ele>662.1</ele>
        <time>2011-08-31T08:18:11Z</time>
      </trkpt>
      <trkpt lat="45.26768" lon="5.55232">
        <ele>662.6</ele>
        <time>2011-08-31T08:18:13Z</time>
      </trkpt>
      <trkpt lat="45.26772" lon="5.55237">
        <ele>663.1</ele>
        <time>2011-08-31T08:18:15Z</time>
      </trkpt>
      <trkpt lat="45.26776" lon="5.55242">
        <ele>663.1</ele>
        <time>2011-08-31T08:18:17Z</time>
      </trkpt>
      <trkpt lat="45.26781" lon="5.55242">
        <ele>663.5</ele>
        <time>2011-08-31T08:18:21Z</time>
      </trkpt>
      <trkpt lat="45.26784" lon="5.55233">
        <ele>664.9</ele>
        <time>2011-08-31T08:18:25Z</time>
      </trkpt>
      <trkpt lat="45.26785" lon="5.55223">
        <ele>665</ele>
        <time>2011-08-31T08:18:27Z</time>
      </trkpt>
      <trkpt lat="45.26789" lon="5.55212">
        <ele>665.4</ele>
        <time>2011-08-31T08:18:29Z</time>
      </trkpt>
      <trkpt lat="45.26792" lon="5.55206">
        <ele>665.5</ele>
        <time>2011-08-31T08:18:30Z</time>
      </trkpt>
      <trkpt lat="45.26795" lon="5.55199">
        <ele>665.6</ele>
        <time>2011-08-31T08:18:31Z</time>
      </trkpt>
      <trkpt lat="45.26798" lon="5.55193">
        <ele>665.7</ele>
        <time>2011-08-31T08:18:32Z</time>
      </trkpt>
      <trkpt lat="45.26802" lon="5.55187">
        <ele>665.7</ele>
        <time>2011-08-31T08:18:33Z</time>
      </trkpt>
      <trkpt lat="45.26806" lon="5.55181">
        <ele>665.6</ele>
        <time>2011-08-31T08:18:34Z</time>
      </trkpt>
      <trkpt lat="45.2681" lon="5.55176">
        <ele>665.6</ele>
        <time>2011-08-31T08:18:35Z</time>
      </trkpt>
      <trkpt lat="45.26815" lon="5.55171">
        <ele>665.6</ele>
        <time>2011-08-31T08:18:36Z</time>
      </trkpt>
      <trkpt lat="45.26819" lon="5.55165">
        <ele>665.6</ele>
        <time>2011-08-31T08:18:37Z</time>
      </trkpt>
      <trkpt lat="45.26824" lon="5.5516">
        <ele>665.7</ele>
        <time>2011-08-31T08:18:38Z</time>
      </trkpt>
      <trkpt lat="45.26828" lon="5.55154">
        <ele>665.5</ele>
        <time>2011-08-31T08:18:39Z</time>
      </trkpt>
      <trkpt lat="45.26833" lon="5.5515">
        <ele>665.1</ele>
        <time>2011-08-31T08:18:40Z</time>
      </trkpt>
      <trkpt lat="45.26837" lon="5.55145">
        <ele>664.9</ele>
        <time>2011-08-31T08:18:41Z</time>
      </trkpt>
      <trkpt lat="45.26841" lon="5.5514">
        <ele>664.6</ele>
        <time>2011-08-31T08:18:42Z</time>
      </trkpt>
      <trkpt lat="45.26845" lon="5.55134">
        <ele>664.4</ele>
        <time>2011-08-31T08:18:43Z</time>
      </trkpt>
      <trkpt lat="45.26849" lon="5.55127">
        <ele>663.5</ele>
        <time>2011-08-31T08:18:44Z</time>
      </trkpt>
      <trkpt lat="45.26853" lon="5.55121">
        <ele>662.8</ele>
        <time>2011-08-31T08:18:45Z</time>
      </trkpt>
      <trkpt lat="45.26856" lon="5.55113">
        <ele>661.5</ele>
        <time>2011-08-31T08:18:46Z</time>
      </trkpt>
      <trkpt lat="45.26858" lon="5.55105">
        <ele>660.6</ele>
        <time>2011-08-31T08:18:47Z</time>
      </trkpt>
      <trkpt lat="45.2686" lon="5.55098">
        <ele>659.6</ele>
        <time>2011-08-31T08:18:48Z</time>
      </trkpt>
      <trkpt lat="45.26862" lon="5.5509">
        <ele>658.7</ele>
        <time>2011-08-31T08:18:49Z</time>
      </trkpt>
      <trkpt lat="45.26865" lon="5.55083">
        <ele>657.7</ele>
        <time>2011-08-31T08:18:50Z</time>
      </trkpt>
      <trkpt lat="45.26867" lon="5.55075">
        <ele>656.5</ele>
        <time>2011-08-31T08:18:51Z</time>
      </trkpt>
      <trkpt lat="45.26869" lon="5.55068">
        <ele>655.5</ele>
        <time>2011-08-31T08:18:52Z</time>
      </trkpt>
      <trkpt lat="45.2687" lon="5.5506">
        <ele>654.9</ele>
        <time>2011-08-31T08:18:53Z</time>
      </trkpt>
      <trkpt lat="45.26871" lon="5.55053">
        <ele>654.4</ele>
        <time>2011-08-31T08:18:54Z</time>
      </trkpt>
      <trkpt lat="45.26875" lon="5.55043">
        <ele>652.7</ele>
        <time>2011-08-31T08:18:55Z</time>
      </trkpt>
      <trkpt lat="45.26876" lon="5.55036">
        <ele>652.2</ele>
        <time>2011-08-31T08:18:56Z</time>
      </trkpt>
      <trkpt lat="45.26878" lon="5.5503">
        <ele>651.5</ele>
        <time>2011-08-31T08:18:57Z</time>
      </trkpt>
      <trkpt lat="45.26881" lon="5.55024">
        <ele>650.1</ele>
        <time>2011-08-31T08:18:58Z</time>
      </trkpt>
      <trkpt lat="45.26883" lon="5.55018">
        <ele>649.4</ele>
        <time>2011-08-31T08:18:59Z</time>
      </trkpt>
      <trkpt lat="45.26888" lon="5.55012">
        <ele>647.7</ele>
        <time>2011-08-31T08:19:00Z</time>
      </trkpt>
      <trkpt lat="45.26891" lon="5.55006">
        <ele>646.1</ele>
        <time>2011-08-31T08:19:01Z</time>
      </trkpt>
      <trkpt lat="45.26895" lon="5.55">
        <ele>644.6</ele>
        <time>2011-08-31T08:19:02Z</time>
      </trkpt>
      <trkpt lat="45.26899" lon="5.54996">
        <ele>643.3</ele>
        <time>2011-08-31T08:19:03Z</time>
      </trkpt>
      <trkpt lat="45.26903" lon="5.54991">
        <ele>641.9</ele>
        <time>2011-08-31T08:19:04Z</time>
      </trkpt>
      <trkpt lat="45.26907" lon="5.54987">
        <ele>640.3</ele>
        <time>2011-08-31T08:19:05Z</time>
      </trkpt>
      <trkpt lat="45.26911" lon="5.54983">
        <ele>638.9</ele>
        <time>2011-08-31T08:19:06Z</time>
      </trkpt>
      <trkpt lat="45.26915" lon="5.5498">
        <ele>637.9</ele>
        <time>2011-08-31T08:19:07Z</time>
      </trkpt>
      <trkpt lat="45.26923" lon="5.54977">
        <ele>635.9</ele>
        <time>2011-08-31T08:19:09Z</time>
      </trkpt>
      <trkpt lat="45.2693" lon="5.54974">
        <ele>633.8</ele>
        <time>2011-08-31T08:19:11Z</time>
      </trkpt>
      <trkpt lat="45.26936" lon="5.54968">
        <ele>630.9</ele>
        <time>2011-08-31T08:19:13Z</time>
      </trkpt>
      <trkpt lat="45.26943" lon="5.54964">
        <ele>627.9</ele>
        <time>2011-08-31T08:19:15Z</time>
      </trkpt>
      <trkpt lat="45.26952" lon="5.54962">
        <ele>625.3</ele>
        <time>2011-08-31T08:19:17Z</time>
      </trkpt>
      <trkpt lat="45.26959" lon="5.54964">
        <ele>623.3</ele>
        <time>2011-08-31T08:19:19Z</time>
      </trkpt>
      <trkpt lat="45.26966" lon="5.5497">
        <ele>621.5</ele>
        <time>2011-08-31T08:19:21Z</time>
      </trkpt>
      <trkpt lat="45.2697" lon="5.54973">
        <ele>620.4</ele>
        <time>2011-08-31T08:19:22Z</time>
      </trkpt>
      <trkpt lat="45.26974" lon="5.54978">
        <ele>619.5</ele>
        <time>2011-08-31T08:19:23Z</time>
      </trkpt>
      <trkpt lat="45.26977" lon="5.54982">
        <ele>618.5</ele>
        <time>2011-08-31T08:19:24Z</time>
      </trkpt>
      <trkpt lat="45.2698" lon="5.54987">
        <ele>617.6</ele>
        <time>2011-08-31T08:19:25Z</time>
      </trkpt>
      <trkpt lat="45.26984" lon="5.54993">
        <ele>616.8</ele>
        <time>2011-08-31T08:19:26Z</time>
      </trkpt>
      <trkpt lat="45.26987" lon="5.54998">
        <ele>616.3</ele>
        <time>2011-08-31T08:19:27Z</time>
      </trkpt>
      <trkpt lat="45.2699" lon="5.55002">
        <ele>615.7</ele>
        <time>2011-08-31T08:19:28Z</time>
      </trkpt>
      <trkpt lat="45.26994" lon="5.55007">
        <ele>615.1</ele>
        <time>2011-08-31T08:19:29Z</time>
      </trkpt>
      <trkpt lat="45.26998" lon="5.55012">
        <ele>614.4</ele>
        <time>2011-08-31T08:19:30Z</time>
      </trkpt>
      <trkpt lat="45.27002" lon="5.55015">
        <ele>614</ele>
        <time>2011-08-31T08:19:31Z</time>
      </trkpt>
      <trkpt lat="45.27006" lon="5.55018">
        <ele>613.8</ele>
        <time>2011-08-31T08:19:32Z</time>
      </trkpt>
      <trkpt lat="45.27011" lon="5.55021">
        <ele>613.1</ele>
        <time>2011-08-31T08:19:33Z</time>
      </trkpt>
      <trkpt lat="45.27016" lon="5.5502">
        <ele>610.9</ele>
        <time>2011-08-31T08:19:34Z</time>
      </trkpt>
      <trkpt lat="45.27023" lon="5.5502">
        <ele>609.8</ele>
        <time>2011-08-31T08:19:36Z</time>
      </trkpt>
      <trkpt lat="45.27028" lon="5.55014">
        <ele>608.4</ele>
        <time>2011-08-31T08:19:38Z</time>
      </trkpt>
      <trkpt lat="45.27032" lon="5.5501">
        <ele>607.2</ele>
        <time>2011-08-31T08:19:40Z</time>
      </trkpt>
      <trkpt lat="45.27038" lon="5.55002">
        <ele>606.2</ele>
        <time>2011-08-31T08:19:42Z</time>
      </trkpt>
      <trkpt lat="45.27046" lon="5.54991">
        <ele>604.4</ele>
        <time>2011-08-31T08:19:44Z</time>
      </trkpt>
      <trkpt lat="45.2705" lon="5.54987">
        <ele>603.9</ele>
        <time>2011-08-31T08:19:45Z</time>
      </trkpt>
      <trkpt lat="45.27055" lon="5.54982">
        <ele>602.9</ele>
        <time>2011-08-31T08:19:46Z</time>
      </trkpt>
      <trkpt lat="45.2706" lon="5.54978">
        <ele>601.8</ele>
        <time>2011-08-31T08:19:47Z</time>
      </trkpt>
      <trkpt lat="45.27064" lon="5.54975">
        <ele>600.6</ele>
        <time>2011-08-31T08:19:48Z</time>
      </trkpt>
      <trkpt lat="45.27073" lon="5.54972">
        <ele>598.9</ele>
        <time>2011-08-31T08:19:50Z</time>
      </trkpt>
      <trkpt lat="45.2708" lon="5.54971">
        <ele>597.1</ele>
        <time>2011-08-31T08:19:52Z</time>
      </trkpt>
      <trkpt lat="45.27084" lon="5.54972">
        <ele>596.3</ele>
        <time>2011-08-31T08:19:53Z</time>
      </trkpt>
      <trkpt lat="45.27093" lon="5.54974">
        <ele>594.5</ele>
        <time>2011-08-31T08:19:55Z</time>
      </trkpt>
      <trkpt lat="45.27097" lon="5.54976">
        <ele>593.7</ele>
        <time>2011-08-31T08:19:56Z</time>
      </trkpt>
      <trkpt lat="45.27102" lon="5.54978">
        <ele>592.9</ele>
        <time>2011-08-31T08:19:57Z</time>
      </trkpt>
      <trkpt lat="45.27106" lon="5.5498">
        <ele>592.2</ele>
        <time>2011-08-31T08:19:58Z</time>
      </trkpt>
      <trkpt lat="45.2711" lon="5.54983">
        <ele>591.5</ele>
        <time>2011-08-31T08:19:59Z</time>
      </trkpt>
      <trkpt lat="45.27118" lon="5.5499">
        <ele>589.8</ele>
        <time>2011-08-31T08:20:01Z</time>
      </trkpt>
      <trkpt lat="45.27124" lon="5.54993">
        <ele>588.7</ele>
        <time>2011-08-31T08:20:02Z</time>
      </trkpt>
      <trkpt lat="45.2713" lon="5.54997">
        <ele>587.8</ele>
        <time>2011-08-31T08:20:03Z</time>
      </trkpt>
      <trkpt lat="45.27135" lon="5.55001">
        <ele>587</ele>
        <time>2011-08-31T08:20:04Z</time>
      </trkpt>
      <trkpt lat="45.27139" lon="5.55006">
        <ele>586.3</ele>
        <time>2011-08-31T08:20:05Z</time>
      </trkpt>
      <trkpt lat="45.27144" lon="5.55013">
        <ele>585.3</ele>
        <time>2011-08-31T08:20:06Z</time>
      </trkpt>
      <trkpt lat="45.27149" lon="5.55019">
        <ele>584.5</ele>
        <time>2011-08-31T08:20:07Z</time>
      </trkpt>
      <trkpt lat="45.27153" lon="5.55024">
        <ele>583.6</ele>
        <time>2011-08-31T08:20:08Z</time>
      </trkpt>
      <trkpt lat="45.27157" lon="5.5503">
        <ele>582.7</ele>
        <time>2011-08-31T08:20:09Z</time>
      </trkpt>
      <trkpt lat="45.27161" lon="5.55036">
        <ele>581.7</ele>
        <time>2011-08-31T08:20:10Z</time>
      </trkpt>
      <trkpt lat="45.27164" lon="5.55042">
        <ele>580.8</ele>
        <time>2011-08-31T08:20:11Z</time>
      </trkpt>
      <trkpt lat="45.27168" lon="5.55049">
        <ele>579.1</ele>
        <time>2011-08-31T08:20:12Z</time>
      </trkpt>
      <trkpt lat="45.27172" lon="5.55056">
        <ele>577.7</ele>
        <time>2011-08-31T08:20:13Z</time>
      </trkpt>
      <trkpt lat="45.27175" lon="5.55063">
        <ele>576.4</ele>
        <time>2011-08-31T08:20:14Z</time>
      </trkpt>
      <trkpt lat="45.27179" lon="5.55068">
        <ele>575.7</ele>
        <time>2011-08-31T08:20:15Z</time>
      </trkpt>
      <trkpt lat="45.27182" lon="5.55074">
        <ele>575.2</ele>
        <time>2011-08-31T08:20:16Z</time>
      </trkpt>
      <trkpt lat="45.27185" lon="5.55081">
        <ele>574.3</ele>
        <time>2011-08-31T08:20:17Z</time>
      </trkpt>
      <trkpt lat="45.27188" lon="5.55087">
        <ele>573.7</ele>
        <time>2011-08-31T08:20:18Z</time>
      </trkpt>
      <trkpt lat="45.27191" lon="5.55094">
        <ele>572.9</ele>
        <time>2011-08-31T08:20:19Z</time>
      </trkpt>
      <trkpt lat="45.27195" lon="5.55099">
        <ele>572.1</ele>
        <time>2011-08-31T08:20:20Z</time>
      </trkpt>
      <trkpt lat="45.27198" lon="5.55106">
        <ele>571.3</ele>
        <time>2011-08-31T08:20:21Z</time>
      </trkpt>
      <trkpt lat="45.27201" lon="5.55112">
        <ele>570.6</ele>
        <time>2011-08-31T08:20:22Z</time>
      </trkpt>
      <trkpt lat="45.27203" lon="5.5512">
        <ele>569.7</ele>
        <time>2011-08-31T08:20:23Z</time>
      </trkpt>
      <trkpt lat="45.27205" lon="5.55126">
        <ele>569.1</ele>
        <time>2011-08-31T08:20:24Z</time>
      </trkpt>
      <trkpt lat="45.27206" lon="5.55133">
        <ele>567.6</ele>
        <time>2011-08-31T08:20:25Z</time>
      </trkpt>
      <trkpt lat="45.27208" lon="5.5514">
        <ele>566.6</ele>
        <time>2011-08-31T08:20:26Z</time>
      </trkpt>
      <trkpt lat="45.2721" lon="5.55149">
        <ele>565.6</ele>
        <time>2011-08-31T08:20:27Z</time>
      </trkpt>
      <trkpt lat="45.27214" lon="5.55157">
        <ele>563</ele>
        <time>2011-08-31T08:20:28Z</time>
      </trkpt>
      <trkpt lat="45.27217" lon="5.55164">
        <ele>562.2</ele>
        <time>2011-08-31T08:20:29Z</time>
      </trkpt>
      <trkpt lat="45.27221" lon="5.5517">
        <ele>561.3</ele>
        <time>2011-08-31T08:20:30Z</time>
      </trkpt>
      <trkpt lat="45.27224" lon="5.55176">
        <ele>560.6</ele>
        <time>2011-08-31T08:20:31Z</time>
      </trkpt>
      <trkpt lat="45.27227" lon="5.55183">
        <ele>559.8</ele>
        <time>2011-08-31T08:20:32Z</time>
      </trkpt>
      <trkpt lat="45.2723" lon="5.55189">
        <ele>559.1</ele>
        <time>2011-08-31T08:20:33Z</time>
      </trkpt>
      <trkpt lat="45.27235" lon="5.55197">
        <ele>557.2</ele>
        <time>2011-08-31T08:20:35Z</time>
      </trkpt>
      <trkpt lat="45.27239" lon="5.55203">
        <ele>556</ele>
        <time>2011-08-31T08:20:37Z</time>
      </trkpt>
      <trkpt lat="45.27244" lon="5.55209">
        <ele>554.7</ele>
        <time>2011-08-31T08:20:39Z</time>
      </trkpt>
      <trkpt lat="45.27249" lon="5.55214">
        <ele>553.3</ele>
        <time>2011-08-31T08:20:41Z</time>
      </trkpt>
      <trkpt lat="45.27254" lon="5.55216">
        <ele>552.4</ele>
        <time>2011-08-31T08:20:43Z</time>
      </trkpt>
      <trkpt lat="45.27259" lon="5.55215">
        <ele>547.8</ele>
        <time>2011-08-31T08:20:46Z</time>
      </trkpt>
      <trkpt lat="45.27263" lon="5.5521">
        <ele>543.7</ele>
        <time>2011-08-31T08:20:50Z</time>
      </trkpt>
      <trkpt lat="45.27267" lon="5.55206">
        <ele>541.5</ele>
        <time>2011-08-31T08:20:52Z</time>
      </trkpt>
      <trkpt lat="45.27273" lon="5.55196">
        <ele>538.2</ele>
        <time>2011-08-31T08:20:54Z</time>
      </trkpt>
      <trkpt lat="45.27276" lon="5.5519">
        <ele>536.6</ele>
        <time>2011-08-31T08:20:55Z</time>
      </trkpt>
      <trkpt lat="45.27279" lon="5.55185">
        <ele>535.3</ele>
        <time>2011-08-31T08:20:56Z</time>
      </trkpt>
      <trkpt lat="45.27282" lon="5.55179">
        <ele>533.8</ele>
        <time>2011-08-31T08:20:57Z</time>
      </trkpt>
      <trkpt lat="45.27285" lon="5.55173">
        <ele>532.6</ele>
        <time>2011-08-31T08:20:58Z</time>
      </trkpt>
      <trkpt lat="45.27288" lon="5.55167">
        <ele>531.1</ele>
        <time>2011-08-31T08:20:59Z</time>
      </trkpt>
      <trkpt lat="45.2729" lon="5.55162">
        <ele>530.2</ele>
        <time>2011-08-31T08:21:00Z</time>
      </trkpt>
      <trkpt lat="45.27293" lon="5.55156">
        <ele>529.1</ele>
        <time>2011-08-31T08:21:01Z</time>
      </trkpt>
      <trkpt lat="45.27296" lon="5.5515">
        <ele>528.9</ele>
        <time>2011-08-31T08:21:02Z</time>
      </trkpt>
      <trkpt lat="45.273" lon="5.55141">
        <ele>528.1</ele>
        <time>2011-08-31T08:21:04Z</time>
      </trkpt>
      <trkpt lat="45.27305" lon="5.55134">
        <ele>527.7</ele>
        <time>2011-08-31T08:21:06Z</time>
      </trkpt>
      <trkpt lat="45.27309" lon="5.55129">
        <ele>526.3</ele>
        <time>2011-08-31T08:21:07Z</time>
      </trkpt>
      <trkpt lat="45.27312" lon="5.55124">
        <ele>524</ele>
        <time>2011-08-31T08:21:08Z</time>
      </trkpt>
      <trkpt lat="45.27314" lon="5.55118">
        <ele>523.3</ele>
        <time>2011-08-31T08:21:09Z</time>
      </trkpt>
      <trkpt lat="45.27316" lon="5.55112">
        <ele>522</ele>
        <time>2011-08-31T08:21:10Z</time>
      </trkpt>
      <trkpt lat="45.27317" lon="5.55106">
        <ele>520.8</ele>
        <time>2011-08-31T08:21:11Z</time>
      </trkpt>
      <trkpt lat="45.27318" lon="5.55098">
        <ele>519.6</ele>
        <time>2011-08-31T08:21:12Z</time>
      </trkpt>
      <trkpt lat="45.27317" lon="5.55091">
        <ele>517.8</ele>
        <time>2011-08-31T08:21:13Z</time>
      </trkpt>
      <trkpt lat="45.27317" lon="5.55085">
        <ele>516.3</ele>
        <time>2011-08-31T08:21:14Z</time>
      </trkpt>
      <trkpt lat="45.27317" lon="5.55077">
        <ele>514.7</ele>
        <time>2011-08-31T08:21:15Z</time>
      </trkpt>
      <trkpt lat="45.27318" lon="5.55064">
        <ele>512.4</ele>
        <time>2011-08-31T08:21:17Z</time>
      </trkpt>
      <trkpt lat="45.27318" lon="5.55056">
        <ele>511</ele>
        <time>2011-08-31T08:21:18Z</time>
      </trkpt>
      <trkpt lat="45.27317" lon="5.5505">
        <ele>509.2</ele>
        <time>2011-08-31T08:21:19Z</time>
      </trkpt>
      <trkpt lat="45.27315" lon="5.55036">
        <ele>504</ele>
        <time>2011-08-31T08:21:21Z</time>
      </trkpt>
      <trkpt lat="45.27316" lon="5.55029">
        <ele>501.2</ele>
        <time>2011-08-31T08:21:22Z</time>
      </trkpt>
      <trkpt lat="45.27316" lon="5.55018">
        <ele>497.9</ele>
        <time>2011-08-31T08:21:24Z</time>
      </trkpt>
      <trkpt lat="45.27317" lon="5.55006">
        <ele>496</ele>
        <time>2011-08-31T08:21:26Z</time>
      </trkpt>
      <trkpt lat="45.27315" lon="5.54998">
        <ele>492.9</ele>
        <time>2011-08-31T08:21:28Z</time>
      </trkpt>
      <trkpt lat="45.27317" lon="5.54991">
        <ele>490.2</ele>
        <time>2011-08-31T08:21:29Z</time>
      </trkpt>
      <trkpt lat="45.27318" lon="5.54982">
        <ele>486.6</ele>
        <time>2011-08-31T08:21:31Z</time>
      </trkpt>
      <trkpt lat="45.27318" lon="5.54973">
        <ele>483.7</ele>
        <time>2011-08-31T08:21:33Z</time>
      </trkpt>
      <trkpt lat="45.27319" lon="5.54964">
        <ele>480.5</ele>
        <time>2011-08-31T08:21:35Z</time>
      </trkpt>
      <trkpt lat="45.2732" lon="5.54957">
        <ele>477.5</ele>
        <time>2011-08-31T08:21:37Z</time>
      </trkpt>
      <trkpt lat="45.27322" lon="5.5495">
        <ele>474.9</ele>
        <time>2011-08-31T08:21:39Z</time>
      </trkpt>
      <trkpt lat="45.27323" lon="5.5494">
        <ele>471.8</ele>
        <time>2011-08-31T08:21:41Z</time>
      </trkpt>
      <trkpt lat="45.27323" lon="5.54934">
        <ele>469.8</ele>
        <time>2011-08-31T08:21:43Z</time>
      </trkpt>
      <trkpt lat="45.27323" lon="5.54926">
        <ele>467.8</ele>
        <time>2011-08-31T08:21:45Z</time>
      </trkpt>
      <trkpt lat="45.27325" lon="5.54918">
        <ele>465.3</ele>
        <time>2011-08-31T08:21:47Z</time>
      </trkpt>
      <trkpt lat="45.27327" lon="5.54909">
        <ele>463.1</ele>
        <time>2011-08-31T08:21:49Z</time>
      </trkpt>
      <trkpt lat="45.27328" lon="5.549">
        <ele>461.8</ele>
        <time>2011-08-31T08:21:51Z</time>
      </trkpt>
      <trkpt lat="45.27327" lon="5.54892">
        <ele>459</ele>
        <time>2011-08-31T08:21:53Z</time>
      </trkpt>
      <trkpt lat="45.27328" lon="5.54884">
        <ele>456</ele>
        <time>2011-08-31T08:21:56Z</time>
      </trkpt>
      <trkpt lat="45.27326" lon="5.54878">
        <ele>453</ele>
        <time>2011-08-31T08:22:05Z</time>
      </trkpt>
      <trkpt lat="45.27326" lon="5.54871">
        <ele>451.4</ele>
        <time>2011-08-31T08:22:09Z</time>
      </trkpt>
      <trkpt lat="45.27325" lon="5.54864">
        <ele>449.2</ele>
        <time>2011-08-31T08:22:15Z</time>
      </trkpt>
      <trkpt lat="45.27321" lon="5.5486">
        <ele>442.9</ele>
        <time>2011-08-31T08:22:36Z</time>
      </trkpt>
      <trkpt lat="45.2732" lon="5.54852">
        <ele>441.4</ele>
        <time>2011-08-31T08:22:40Z</time>
      </trkpt>
      <trkpt lat="45.27319" lon="5.54845">
        <ele>440.2</ele>
        <time>2011-08-31T08:22:43Z</time>
      </trkpt>
      <trkpt lat="45.27319" lon="5.54838">
        <ele>439.2</ele>
        <time>2011-08-31T08:22:46Z</time>
      </trkpt>
      <trkpt lat="45.27319" lon="5.54832">
        <ele>437.8</ele>
        <time>2011-08-31T08:22:50Z</time>
      </trkpt>
      <trkpt lat="45.27317" lon="5.54825">
        <ele>435.2</ele>
        <time>2011-08-31T08:22:58Z</time>
      </trkpt>
      <trkpt lat="45.27318" lon="5.54818">
        <ele>434.2</ele>
        <time>2011-08-31T08:23:05Z</time>
      </trkpt>
      <trkpt lat="45.27315" lon="5.54813">
        <ele>431.6</ele>
        <time>2011-08-31T08:23:08Z</time>
      </trkpt>
      <trkpt lat="45.27312" lon="5.54806">
        <ele>429.9</ele>
        <time>2011-08-31T08:23:11Z</time>
      </trkpt>
      <trkpt lat="45.2731" lon="5.54799">
        <ele>428.2</ele>
        <time>2011-08-31T08:23:14Z</time>
      </trkpt>
      <trkpt lat="45.27307" lon="5.54791">
        <ele>426.6</ele>
        <time>2011-08-31T08:23:17Z</time>
      </trkpt>
      <trkpt lat="45.27306" lon="5.54784">
        <ele>425.8</ele>
        <time>2011-08-31T08:23:19Z</time>
      </trkpt>
      <trkpt lat="45.27304" lon="5.54778">
        <ele>424.5</ele>
        <time>2011-08-31T08:23:21Z</time>
      </trkpt>
      <trkpt lat="45.27303" lon="5.5477">
        <ele>422.9</ele>
        <time>2011-08-31T08:23:25Z</time>
      </trkpt>
      <trkpt lat="45.27301" lon="5.54764">
        <ele>421.5</ele>
        <time>2011-08-31T08:23:29Z</time>
      </trkpt>
      <trkpt lat="45.27299" lon="5.54755">
        <ele>419.6</ele>
        <time>2011-08-31T08:23:33Z</time>
      </trkpt>
      <trkpt lat="45.27299" lon="5.54749">
        <ele>418.4</ele>
        <time>2011-08-31T08:23:35Z</time>
      </trkpt>
      <trkpt lat="45.27296" lon="5.54742">
        <ele>415.7</ele>
        <time>2011-08-31T08:23:37Z</time>
      </trkpt>
      <trkpt lat="45.27293" lon="5.54735">
        <ele>413.3</ele>
        <time>2011-08-31T08:23:39Z</time>
      </trkpt>
      <trkpt lat="45.27291" lon="5.54728">
        <ele>412.2</ele>
        <time>2011-08-31T08:23:41Z</time>
      </trkpt>
      <trkpt lat="45.27289" lon="5.54722">
        <ele>411.5</ele>
        <time>2011-08-31T08:23:43Z</time>
      </trkpt>
      <trkpt lat="45.27288" lon="5.54716">
        <ele>410.8</ele>
        <time>2011-08-31T08:23:45Z</time>
      </trkpt>
      <trkpt lat="45.27286" lon="5.54709">
        <ele>410.2</ele>
        <time>2011-08-31T08:23:47Z</time>
      </trkpt>
      <trkpt lat="45.27286" lon="5.54701">
        <ele>409.4</ele>
        <time>2011-08-31T08:23:49Z</time>
      </trkpt>
      <trkpt lat="45.27287" lon="5.54695">
        <ele>408.6</ele>
        <time>2011-08-31T08:23:51Z</time>
      </trkpt>
      <trkpt lat="45.27288" lon="5.54688">
        <ele>407</ele>
        <time>2011-08-31T08:23:54Z</time>
      </trkpt>
      <trkpt lat="45.27292" lon="5.54681">
        <ele>406.2</ele>
        <time>2011-08-31T08:23:57Z</time>
      </trkpt>
      <trkpt lat="45.27354" lon="5.54715">
        <ele>381.8</ele>
        <time>2011-08-31T08:24:12Z</time>
      </trkpt>
      <trkpt lat="45.2736" lon="5.54716">
        <ele>382.9</ele>
        <time>2011-08-31T08:24:14Z</time>
      </trkpt>
      <trkpt lat="45.27367" lon="5.54717">
        <ele>382.2</ele>
        <time>2011-08-31T08:24:16Z</time>
      </trkpt>
      <trkpt lat="45.27374" lon="5.54715">
        <ele>380.9</ele>
        <time>2011-08-31T08:24:18Z</time>
      </trkpt>
      <trkpt lat="45.27381" lon="5.54715">
        <ele>379.4</ele>
        <time>2011-08-31T08:24:20Z</time>
      </trkpt>
      <trkpt lat="45.27385" lon="5.54716">
        <ele>378.8</ele>
        <time>2011-08-31T08:24:21Z</time>
      </trkpt>
      <trkpt lat="45.2739" lon="5.54718">
        <ele>377.8</ele>
        <time>2011-08-31T08:24:22Z</time>
      </trkpt>
      <trkpt lat="45.27394" lon="5.5472">
        <ele>377.1</ele>
        <time>2011-08-31T08:24:23Z</time>
      </trkpt>
      <trkpt lat="45.27399" lon="5.54722">
        <ele>376</ele>
        <time>2011-08-31T08:24:24Z</time>
      </trkpt>
      <trkpt lat="45.27404" lon="5.54724">
        <ele>376.5</ele>
        <time>2011-08-31T08:24:25Z</time>
      </trkpt>
      <trkpt lat="45.27412" lon="5.54724">
        <ele>374.6</ele>
        <time>2011-08-31T08:24:27Z</time>
      </trkpt>
      <trkpt lat="45.2742" lon="5.54722">
        <ele>373.8</ele>
        <time>2011-08-31T08:24:29Z</time>
      </trkpt>
      <trkpt lat="45.27424" lon="5.5472">
        <ele>373</ele>
        <time>2011-08-31T08:24:30Z</time>
      </trkpt>
      <trkpt lat="45.27429" lon="5.54717">
        <ele>372.9</ele>
        <time>2011-08-31T08:24:31Z</time>
      </trkpt>
      <trkpt lat="45.27432" lon="5.54713">
        <ele>373.3</ele>
        <time>2011-08-31T08:24:32Z</time>
      </trkpt>
      <trkpt lat="45.27439" lon="5.54705">
        <ele>372.5</ele>
        <time>2011-08-31T08:24:34Z</time>
      </trkpt>
      <trkpt lat="45.27445" lon="5.54698">
        <ele>371.1</ele>
        <time>2011-08-31T08:24:36Z</time>
      </trkpt>
      <trkpt lat="45.27451" lon="5.54691">
        <ele>369.9</ele>
        <time>2011-08-31T08:24:38Z</time>
      </trkpt>
      <trkpt lat="45.27454" lon="5.54687">
        <ele>368.2</ele>
        <time>2011-08-31T08:24:39Z</time>
      </trkpt>
      <trkpt lat="45.27458" lon="5.54683">
        <ele>366.6</ele>
        <time>2011-08-31T08:24:40Z</time>
      </trkpt>
      <trkpt lat="45.27462" lon="5.54678">
        <ele>364.9</ele>
        <time>2011-08-31T08:24:41Z</time>
      </trkpt>
      <trkpt lat="45.27468" lon="5.54673">
        <ele>362.4</ele>
        <time>2011-08-31T08:24:42Z</time>
      </trkpt>
      <trkpt lat="45.27472" lon="5.5467">
        <ele>362</ele>
        <time>2011-08-31T08:24:43Z</time>
      </trkpt>
      <trkpt lat="45.2748" lon="5.54664">
        <ele>361.6</ele>
        <time>2011-08-31T08:24:45Z</time>
      </trkpt>
      <trkpt lat="45.27484" lon="5.54658">
        <ele>361.1</ele>
        <time>2011-08-31T08:24:46Z</time>
      </trkpt>
      <trkpt lat="45.27489" lon="5.54652">
        <ele>360</ele>
        <time>2011-08-31T08:24:47Z</time>
      </trkpt>
      <trkpt lat="45.27494" lon="5.54645">
        <ele>358.9</ele>
        <time>2011-08-31T08:24:48Z</time>
      </trkpt>
      <trkpt lat="45.275" lon="5.54639">
        <ele>357.5</ele>
        <time>2011-08-31T08:24:49Z</time>
      </trkpt>
      <trkpt lat="45.27506" lon="5.54632">
        <ele>356.8</ele>
        <time>2011-08-31T08:24:50Z</time>
      </trkpt>
      <trkpt lat="45.27511" lon="5.54626">
        <ele>356.3</ele>
        <time>2011-08-31T08:24:51Z</time>
      </trkpt>
      <trkpt lat="45.27516" lon="5.54619">
        <ele>356</ele>
        <time>2011-08-31T08:24:52Z</time>
      </trkpt>
      <trkpt lat="45.27522" lon="5.54613">
        <ele>355.9</ele>
        <time>2011-08-31T08:24:53Z</time>
      </trkpt>
      <trkpt lat="45.27528" lon="5.54606">
        <ele>355.5</ele>
        <time>2011-08-31T08:24:54Z</time>
      </trkpt>
      <trkpt lat="45.27534" lon="5.546">
        <ele>355.3</ele>
        <time>2011-08-31T08:24:55Z</time>
      </trkpt>
      <trkpt lat="45.27539" lon="5.54595">
        <ele>354.9</ele>
        <time>2011-08-31T08:24:56Z</time>
      </trkpt>
      <trkpt lat="45.27546" lon="5.54589">
        <ele>353.6</ele>
        <time>2011-08-31T08:24:57Z</time>
      </trkpt>
      <trkpt lat="45.27553" lon="5.54583">
        <ele>352.1</ele>
        <time>2011-08-31T08:24:58Z</time>
      </trkpt>
      <trkpt lat="45.27559" lon="5.5458">
        <ele>351.1</ele>
        <time>2011-08-31T08:24:59Z</time>
      </trkpt>
      <trkpt lat="45.27564" lon="5.54578">
        <ele>350.4</ele>
        <time>2011-08-31T08:25:00Z</time>
      </trkpt>
      <trkpt lat="45.27564" lon="5.54584">
        <ele>347.8</ele>
        <time>2011-08-31T08:25:04Z</time>
      </trkpt>
      <trkpt lat="45.27564" lon="5.54592">
        <ele>339.7</ele>
        <time>2011-08-31T08:26:15Z</time>
      </trkpt>
      <trkpt lat="45.27567" lon="5.54597">
        <ele>339</ele>
        <time>2011-08-31T08:26:17Z</time>
      </trkpt>
      <trkpt lat="45.27571" lon="5.54607">
        <ele>338.3</ele>
        <time>2011-08-31T08:26:19Z</time>
      </trkpt>
      <trkpt lat="45.27573" lon="5.54615">
        <ele>337.9</ele>
        <time>2011-08-31T08:26:20Z</time>
      </trkpt>
      <trkpt lat="45.27576" lon="5.54624">
        <ele>337.8</ele>
        <time>2011-08-31T08:26:21Z</time>
      </trkpt>
      <trkpt lat="45.27578" lon="5.54631">
        <ele>337.6</ele>
        <time>2011-08-31T08:26:22Z</time>
      </trkpt>
      <trkpt lat="45.27581" lon="5.54638">
        <ele>337.5</ele>
        <time>2011-08-31T08:26:23Z</time>
      </trkpt>
      <trkpt lat="45.27584" lon="5.54645">
        <ele>337.5</ele>
        <time>2011-08-31T08:26:24Z</time>
      </trkpt>
      <trkpt lat="45.27586" lon="5.54653">
        <ele>337.4</ele>
        <time>2011-08-31T08:26:25Z</time>
      </trkpt>
      <trkpt lat="45.27589" lon="5.54661">
        <ele>337.4</ele>
        <time>2011-08-31T08:26:26Z</time>
      </trkpt>
      <trkpt lat="45.27592" lon="5.54672">
        <ele>337</ele>
        <time>2011-08-31T08:26:27Z</time>
      </trkpt>
      <trkpt lat="45.27596" lon="5.54682">
        <ele>336.4</ele>
        <time>2011-08-31T08:26:28Z</time>
      </trkpt>
      <trkpt lat="45.276" lon="5.54693">
        <ele>335.9</ele>
        <time>2011-08-31T08:26:29Z</time>
      </trkpt>
      <trkpt lat="45.27604" lon="5.54704">
        <ele>335</ele>
        <time>2011-08-31T08:26:30Z</time>
      </trkpt>
      <trkpt lat="45.27608" lon="5.54715">
        <ele>334.7</ele>
        <time>2011-08-31T08:26:31Z</time>
      </trkpt>
      <trkpt lat="45.27613" lon="5.54728">
        <ele>333.4</ele>
        <time>2011-08-31T08:26:32Z</time>
      </trkpt>
      <trkpt lat="45.27618" lon="5.54738">
        <ele>333.3</ele>
        <time>2011-08-31T08:26:33Z</time>
      </trkpt>
      <trkpt lat="45.27623" lon="5.54748">
        <ele>333.3</ele>
        <time>2011-08-31T08:26:34Z</time>
      </trkpt>
      <trkpt lat="45.27628" lon="5.54756">
        <ele>333.3</ele>
        <time>2011-08-31T08:26:35Z</time>
      </trkpt>
      <trkpt lat="45.27634" lon="5.54762">
        <ele>332.7</ele>
        <time>2011-08-31T08:26:36Z</time>
      </trkpt>
      <trkpt lat="45.27641" lon="5.54764">
        <ele>332.8</ele>
        <time>2011-08-31T08:26:37Z</time>
      </trkpt>
      <trkpt lat="45.27648" lon="5.54762">
        <ele>332.7</ele>
        <time>2011-08-31T08:26:38Z</time>
      </trkpt>
      <trkpt lat="45.27654" lon="5.5476">
        <ele>332.2</ele>
        <time>2011-08-31T08:26:39Z</time>
      </trkpt>
      <trkpt lat="45.2766" lon="5.54758">
        <ele>331.1</ele>
        <time>2011-08-31T08:26:40Z</time>
      </trkpt>
      <trkpt lat="45.27666" lon="5.54758">
        <ele>330.5</ele>
        <time>2011-08-31T08:26:41Z</time>
      </trkpt>
      <trkpt lat="45.27672" lon="5.5476">
        <ele>326.7</ele>
        <time>2011-08-31T08:26:43Z</time>
      </trkpt>
      <trkpt lat="45.27676" lon="5.5477">
        <ele>325.8</ele>
        <time>2011-08-31T08:26:45Z</time>
      </trkpt>
      <trkpt lat="45.27679" lon="5.54781">
        <ele>325.7</ele>
        <time>2011-08-31T08:26:47Z</time>
      </trkpt>
      <trkpt lat="45.27681" lon="5.54792">
        <ele>325.5</ele>
        <time>2011-08-31T08:26:49Z</time>
      </trkpt>
      <trkpt lat="45.27684" lon="5.54802">
        <ele>325.6</ele>
        <time>2011-08-31T08:26:51Z</time>
      </trkpt>
      <trkpt lat="45.27686" lon="5.54811">
        <ele>325.3</ele>
        <time>2011-08-31T08:26:53Z</time>
      </trkpt>
      <trkpt lat="45.27688" lon="5.5482">
        <ele>325.3</ele>
        <time>2011-08-31T08:26:55Z</time>
      </trkpt>
      <trkpt lat="45.27688" lon="5.5483">
        <ele>325.4</ele>
        <time>2011-08-31T08:26:57Z</time>
      </trkpt>
      <trkpt lat="45.2769" lon="5.54839">
        <ele>325.7</ele>
        <time>2011-08-31T08:26:59Z</time>
      </trkpt>
      <trkpt lat="45.27695" lon="5.54847">
        <ele>326.1</ele>
        <time>2011-08-31T08:27:01Z</time>
      </trkpt>
      <trkpt lat="45.27701" lon="5.54852">
        <ele>326.4</ele>
        <time>2011-08-31T08:27:03Z</time>
      </trkpt>
      <trkpt lat="45.27707" lon="5.54858">
        <ele>326.7</ele>
        <time>2011-08-31T08:27:05Z</time>
      </trkpt>
      <trkpt lat="45.27712" lon="5.54864">
        <ele>326.9</ele>
        <time>2011-08-31T08:27:07Z</time>
      </trkpt>
      <trkpt lat="45.27716" lon="5.54871">
        <ele>327.3</ele>
        <time>2011-08-31T08:27:09Z</time>
      </trkpt>
      <trkpt lat="45.2772" lon="5.54878">
        <ele>327.5</ele>
        <time>2011-08-31T08:27:11Z</time>
      </trkpt>
      <trkpt lat="45.27724" lon="5.54886">
        <ele>328.2</ele>
        <time>2011-08-31T08:27:13Z</time>
      </trkpt>
      <trkpt lat="45.27727" lon="5.54893">
        <ele>328.7</ele>
        <time>2011-08-31T08:27:15Z</time>
      </trkpt>
      <trkpt lat="45.2773" lon="5.54901">
        <ele>329</ele>
        <time>2011-08-31T08:27:17Z</time>
      </trkpt>
      <trkpt lat="45.27733" lon="5.5491">
        <ele>328.8</ele>
        <time>2011-08-31T08:27:19Z</time>
      </trkpt>
      <trkpt lat="45.27738" lon="5.54918">
        <ele>328.6</ele>
        <time>2011-08-31T08:27:21Z</time>
      </trkpt>
      <trkpt lat="45.27744" lon="5.54928">
        <ele>328.2</ele>
        <time>2011-08-31T08:27:23Z</time>
      </trkpt>
      <trkpt lat="45.27747" lon="5.54934">
        <ele>327.9</ele>
        <time>2011-08-31T08:27:24Z</time>
      </trkpt>
      <trkpt lat="45.2775" lon="5.54939">
        <ele>327.9</ele>
        <time>2011-08-31T08:27:25Z</time>
      </trkpt>
      <trkpt lat="45.27755" lon="5.54944">
        <ele>327.8</ele>
        <time>2011-08-31T08:27:26Z</time>
      </trkpt>
      <trkpt lat="45.27759" lon="5.54949">
        <ele>327.8</ele>
        <time>2011-08-31T08:27:27Z</time>
      </trkpt>
      <trkpt lat="45.27764" lon="5.54954">
        <ele>327.8</ele>
        <time>2011-08-31T08:27:28Z</time>
      </trkpt>
      <trkpt lat="45.27769" lon="5.5496">
        <ele>327.3</ele>
        <time>2011-08-31T08:27:29Z</time>
      </trkpt>
      <trkpt lat="45.27774" lon="5.54965">
        <ele>327.3</ele>
        <time>2011-08-31T08:27:30Z</time>
      </trkpt>
      <trkpt lat="45.2778" lon="5.5497">
        <ele>327.2</ele>
        <time>2011-08-31T08:27:31Z</time>
      </trkpt>
      <trkpt lat="45.27786" lon="5.54976">
        <ele>326.9</ele>
        <time>2011-08-31T08:27:32Z</time>
      </trkpt>
      <trkpt lat="45.27792" lon="5.54981">
        <ele>326.7</ele>
        <time>2011-08-31T08:27:33Z</time>
      </trkpt>
      <trkpt lat="45.27798" lon="5.54986">
        <ele>326.3</ele>
        <time>2011-08-31T08:27:34Z</time>
      </trkpt>
      <trkpt lat="45.27805" lon="5.54992">
        <ele>326</ele>
        <time>2011-08-31T08:27:35Z</time>
      </trkpt>
      <trkpt lat="45.27811" lon="5.54998">
        <ele>325.7</ele>
        <time>2011-08-31T08:27:36Z</time>
      </trkpt>
      <trkpt lat="45.27816" lon="5.55004">
        <ele>325.3</ele>
        <time>2011-08-31T08:27:37Z</time>
      </trkpt>
      <trkpt lat="45.27821" lon="5.55012">
        <ele>325.3</ele>
        <time>2011-08-31T08:27:38Z</time>
      </trkpt>
      <trkpt lat="45.27826" lon="5.55019">
        <ele>325.5</ele>
        <time>2011-08-31T08:27:39Z</time>
      </trkpt>
      <trkpt lat="45.2783" lon="5.55027">
        <ele>325.4</ele>
        <time>2011-08-31T08:27:40Z</time>
      </trkpt>
      <trkpt lat="45.27833" lon="5.55036">
        <ele>324.4</ele>
        <time>2011-08-31T08:27:41Z</time>
      </trkpt>
      <trkpt lat="45.27836" lon="5.55046">
        <ele>323.9</ele>
        <time>2011-08-31T08:27:42Z</time>
      </trkpt>
      <trkpt lat="45.2784" lon="5.55054">
        <ele>323.7</ele>
        <time>2011-08-31T08:27:43Z</time>
      </trkpt>
      <trkpt lat="45.27844" lon="5.55063">
        <ele>323.6</ele>
        <time>2011-08-31T08:27:44Z</time>
      </trkpt>
      <trkpt lat="45.27848" lon="5.55071">
        <ele>323.6</ele>
        <time>2011-08-31T08:27:45Z</time>
      </trkpt>
      <trkpt lat="45.27852" lon="5.55079">
        <ele>323.6</ele>
        <time>2011-08-31T08:27:46Z</time>
      </trkpt>
      <trkpt lat="45.27856" lon="5.55086">
        <ele>323.9</ele>
        <time>2011-08-31T08:27:47Z</time>
      </trkpt>
      <trkpt lat="45.2786" lon="5.55094">
        <ele>324.1</ele>
        <time>2011-08-31T08:27:48Z</time>
      </trkpt>
      <trkpt lat="45.27864" lon="5.55102">
        <ele>324</ele>
        <time>2011-08-31T08:27:49Z</time>
      </trkpt>
      <trkpt lat="45.27867" lon="5.5511">
        <ele>323.9</ele>
        <time>2011-08-31T08:27:50Z</time>
      </trkpt>
      <trkpt lat="45.2787" lon="5.55119">
        <ele>323.8</ele>
        <time>2011-08-31T08:27:51Z</time>
      </trkpt>
      <trkpt lat="45.27874" lon="5.55126">
        <ele>323.7</ele>
        <time>2011-08-31T08:27:52Z</time>
      </trkpt>
      <trkpt lat="45.27878" lon="5.55134">
        <ele>323.6</ele>
        <time>2011-08-31T08:27:53Z</time>
      </trkpt>
      <trkpt lat="45.27882" lon="5.55141">
        <ele>323.3</ele>
        <time>2011-08-31T08:27:54Z</time>
      </trkpt>
      <trkpt lat="45.27886" lon="5.55148">
        <ele>323.1</ele>
        <time>2011-08-31T08:27:55Z</time>
      </trkpt>
      <trkpt lat="45.2789" lon="5.55155">
        <ele>322.9</ele>
        <time>2011-08-31T08:27:56Z</time>
      </trkpt>
      <trkpt lat="45.27894" lon="5.55162">
        <ele>322.7</ele>
        <time>2011-08-31T08:27:57Z</time>
      </trkpt>
      <trkpt lat="45.27898" lon="5.55169">
        <ele>322.4</ele>
        <time>2011-08-31T08:27:58Z</time>
      </trkpt>
      <trkpt lat="45.27902" lon="5.55176">
        <ele>322.7</ele>
        <time>2011-08-31T08:27:59Z</time>
      </trkpt>
      <trkpt lat="45.27906" lon="5.55183">
        <ele>322.5</ele>
        <time>2011-08-31T08:28:00Z</time>
      </trkpt>
      <trkpt lat="45.2791" lon="5.55191">
        <ele>323</ele>
        <time>2011-08-31T08:28:01Z</time>
      </trkpt>
      <trkpt lat="45.27913" lon="5.55198">
        <ele>323.1</ele>
        <time>2011-08-31T08:28:02Z</time>
      </trkpt>
      <trkpt lat="45.27916" lon="5.55205">
        <ele>323.2</ele>
        <time>2011-08-31T08:28:03Z</time>
      </trkpt>
      <trkpt lat="45.2792" lon="5.55212">
        <ele>323.3</ele>
        <time>2011-08-31T08:28:04Z</time>
      </trkpt>
      <trkpt lat="45.27923" lon="5.5522">
        <ele>323.3</ele>
        <time>2011-08-31T08:28:05Z</time>
      </trkpt>
      <trkpt lat="45.27926" lon="5.55228">
        <ele>323.2</ele>
        <time>2011-08-31T08:28:06Z</time>
      </trkpt>
      <trkpt lat="45.27929" lon="5.55236">
        <ele>323.1</ele>
        <time>2011-08-31T08:28:07Z</time>
      </trkpt>
      <trkpt lat="45.27932" lon="5.55244">
        <ele>322.8</ele>
        <time>2011-08-31T08:28:08Z</time>
      </trkpt>
      <trkpt lat="45.27936" lon="5.55253">
        <ele>322.7</ele>
        <time>2011-08-31T08:28:09Z</time>
      </trkpt>
      <trkpt lat="45.27939" lon="5.55264">
        <ele>318.9</ele>
        <time>2011-08-31T08:29:45Z</time>
      </trkpt>
      <trkpt lat="45.2794" lon="5.5527">
        <ele>319.2</ele>
        <time>2011-08-31T08:29:53Z</time>
      </trkpt>
      <trkpt lat="45.27942" lon="5.5528">
        <ele>318.6</ele>
        <time>2011-08-31T08:29:56Z</time>
      </trkpt>
      <trkpt lat="45.27944" lon="5.55289">
        <ele>317.9</ele>
        <time>2011-08-31T08:29:58Z</time>
      </trkpt>
      <trkpt lat="45.27947" lon="5.55297">
        <ele>317.3</ele>
        <time>2011-08-31T08:30:00Z</time>
      </trkpt>
      <trkpt lat="45.27949" lon="5.55304">
        <ele>316.6</ele>
        <time>2011-08-31T08:30:02Z</time>
      </trkpt>
      <trkpt lat="45.2795" lon="5.55311">
        <ele>316.3</ele>
        <time>2011-08-31T08:30:04Z</time>
      </trkpt>
      <trkpt lat="45.27951" lon="5.55317">
        <ele>316.1</ele>
        <time>2011-08-31T08:30:06Z</time>
      </trkpt>
      <trkpt lat="45.27952" lon="5.55324">
        <ele>315.6</ele>
        <time>2011-08-31T08:30:08Z</time>
      </trkpt>
      <trkpt lat="45.27954" lon="5.55331">
        <ele>314.9</ele>
        <time>2011-08-31T08:30:10Z</time>
      </trkpt>
      <trkpt lat="45.27956" lon="5.55338">
        <ele>314.4</ele>
        <time>2011-08-31T08:30:12Z</time>
      </trkpt>
      <trkpt lat="45.2796" lon="5.55344">
        <ele>314.2</ele>
        <time>2011-08-31T08:30:14Z</time>
      </trkpt>
      <trkpt lat="45.27965" lon="5.55348">
        <ele>313.9</ele>
        <time>2011-08-31T08:30:16Z</time>
      </trkpt>
      <trkpt lat="45.27969" lon="5.55357">
        <ele>312.7</ele>
        <time>2011-08-31T08:30:18Z</time>
      </trkpt>
      <trkpt lat="45.27971" lon="5.55363">
        <ele>312.2</ele>
        <time>2011-08-31T08:30:19Z</time>
      </trkpt>
      <trkpt lat="45.27975" lon="5.55372">
        <ele>312</ele>
        <time>2011-08-31T08:30:21Z</time>
      </trkpt>
      <trkpt lat="45.27977" lon="5.55381">
        <ele>311.5</ele>
        <time>2011-08-31T08:30:23Z</time>
      </trkpt>
      <trkpt lat="45.27979" lon="5.55391">
        <ele>310.9</ele>
        <time>2011-08-31T08:30:25Z</time>
      </trkpt>
      <trkpt lat="45.27981" lon="5.55401">
        <ele>310.3</ele>
        <time>2011-08-31T08:30:27Z</time>
      </trkpt>
      <trkpt lat="45.27982" lon="5.55411">
        <ele>309.9</ele>
        <time>2011-08-31T08:30:29Z</time>
      </trkpt>
      <trkpt lat="45.27984" lon="5.55421">
        <ele>309.1</ele>
        <time>2011-08-31T08:30:31Z</time>
      </trkpt>
      <trkpt lat="45.27987" lon="5.55432">
        <ele>308.4</ele>
        <time>2011-08-31T08:30:33Z</time>
      </trkpt>
      <trkpt lat="45.27991" lon="5.55442">
        <ele>307.5</ele>
        <time>2011-08-31T08:30:35Z</time>
      </trkpt>
      <trkpt lat="45.27996" lon="5.55453">
        <ele>306.9</ele>
        <time>2011-08-31T08:30:37Z</time>
      </trkpt>
      <trkpt lat="45.27998" lon="5.55459">
        <ele>306.4</ele>
        <time>2011-08-31T08:30:38Z</time>
      </trkpt>
      <trkpt lat="45.28031" lon="5.5552">
        <ele>279.8</ele>
        <time>2011-08-31T08:30:49Z</time>
      </trkpt>
      <trkpt lat="45.28034" lon="5.55527">
        <ele>284.2</ele>
        <time>2011-08-31T08:30:51Z</time>
      </trkpt>
      <trkpt lat="45.28041" lon="5.55534">
        <ele>286.2</ele>
        <time>2011-08-31T08:33:01Z</time>
      </trkpt>
      <trkpt lat="45.28048" lon="5.55536">
        <ele>286.5</ele>
        <time>2011-08-31T08:33:03Z</time>
      </trkpt>
      <trkpt lat="45.28056" lon="5.55537">
        <ele>286.5</ele>
        <time>2011-08-31T08:33:05Z</time>
      </trkpt>
      <trkpt lat="45.28061" lon="5.55536">
        <ele>286.5</ele>
        <time>2011-08-31T08:33:06Z</time>
      </trkpt>
      <trkpt lat="45.28068" lon="5.55535">
        <ele>286.5</ele>
        <time>2011-08-31T08:33:07Z</time>
      </trkpt>
      <trkpt lat="45.28075" lon="5.55536">
        <ele>286.5</ele>
        <time>2011-08-31T08:33:08Z</time>
      </trkpt>
      <trkpt lat="45.28083" lon="5.55538">
        <ele>286.2</ele>
        <time>2011-08-31T08:33:09Z</time>
      </trkpt>
      <trkpt lat="45.28091" lon="5.55539">
        <ele>286</ele>
        <time>2011-08-31T08:33:10Z</time>
      </trkpt>
      <trkpt lat="45.28099" lon="5.55541">
        <ele>285.7</ele>
        <time>2011-08-31T08:33:11Z</time>
      </trkpt>
      <trkpt lat="45.28108" lon="5.55542">
        <ele>285.5</ele>
        <time>2011-08-31T08:33:12Z</time>
      </trkpt>
      <trkpt lat="45.28116" lon="5.55542">
        <ele>285.2</ele>
        <time>2011-08-31T08:33:13Z</time>
      </trkpt>
      <trkpt lat="45.28125" lon="5.55543">
        <ele>285.1</ele>
        <time>2011-08-31T08:33:14Z</time>
      </trkpt>
      <trkpt lat="45.28133" lon="5.55544">
        <ele>285</ele>
        <time>2011-08-31T08:33:15Z</time>
      </trkpt>
      <trkpt lat="45.28142" lon="5.55546">
        <ele>284.7</ele>
        <time>2011-08-31T08:33:16Z</time>
      </trkpt>
      <trkpt lat="45.28151" lon="5.55548">
        <ele>284.4</ele>
        <time>2011-08-31T08:33:17Z</time>
      </trkpt>
      <trkpt lat="45.2816" lon="5.55551">
        <ele>283.9</ele>
        <time>2011-08-31T08:33:18Z</time>
      </trkpt>
      <trkpt lat="45.2817" lon="5.55559">
        <ele>282.4</ele>
        <time>2011-08-31T08:33:19Z</time>
      </trkpt>
      <trkpt lat="45.28182" lon="5.55568">
        <ele>281.3</ele>
        <time>2011-08-31T08:33:20Z</time>
      </trkpt>
      <trkpt lat="45.28192" lon="5.55578">
        <ele>280.1</ele>
        <time>2011-08-31T08:33:21Z</time>
      </trkpt>
      <trkpt lat="45.28202" lon="5.55585">
        <ele>279.8</ele>
        <time>2011-08-31T08:33:22Z</time>
      </trkpt>
      <trkpt lat="45.28212" lon="5.55595">
        <ele>278.5</ele>
        <time>2011-08-31T08:33:23Z</time>
      </trkpt>
      <trkpt lat="45.28223" lon="5.556">
        <ele>276.8</ele>
        <time>2011-08-31T08:33:24Z</time>
      </trkpt>
      <trkpt lat="45.28235" lon="5.55601">
        <ele>275.7</ele>
        <time>2011-08-31T08:33:25Z</time>
      </trkpt>
      <trkpt lat="45.28245" lon="5.55603">
        <ele>275.2</ele>
        <time>2011-08-31T08:33:26Z</time>
      </trkpt>
      <trkpt lat="45.28254" lon="5.55604">
        <ele>275</ele>
        <time>2011-08-31T08:33:27Z</time>
      </trkpt>
      <trkpt lat="45.28262" lon="5.55602">
        <ele>274.6</ele>
        <time>2011-08-31T08:33:28Z</time>
      </trkpt>
      <trkpt lat="45.28269" lon="5.556">
        <ele>274.7</ele>
        <time>2011-08-31T08:33:29Z</time>
      </trkpt>
      <trkpt lat="45.28275" lon="5.55598">
        <ele>274.2</ele>
        <time>2011-08-31T08:33:30Z</time>
      </trkpt>
      <trkpt lat="45.2828" lon="5.55597">
        <ele>273.7</ele>
        <time>2011-08-31T08:33:31Z</time>
      </trkpt>
      <trkpt lat="45.28285" lon="5.55596">
        <ele>272.4</ele>
        <time>2011-08-31T08:33:32Z</time>
      </trkpt>
      <trkpt lat="45.28285" lon="5.55602">
        <ele>270.8</ele>
        <time>2011-08-31T08:33:35Z</time>
      </trkpt>
      <trkpt lat="45.28282" lon="5.55607">
        <ele>269.7</ele>
        <time>2011-08-31T08:33:36Z</time>
      </trkpt>
      <trkpt lat="45.28276" lon="5.55616">
        <ele>268</ele>
        <time>2011-08-31T08:33:37Z</time>
      </trkpt>
      <trkpt lat="45.28282" lon="5.5571">
        <ele>257.2</ele>
        <time>2011-08-31T08:33:45Z</time>
      </trkpt>
      <trkpt lat="45.28286" lon="5.55718">
        <ele>266.9</ele>
        <time>2011-08-31T08:33:46Z</time>
      </trkpt>
      <trkpt lat="45.28295" lon="5.55732">
        <ele>240.7</ele>
        <time>2011-08-31T08:33:48Z</time>
      </trkpt>
      <trkpt lat="45.283" lon="5.55746">
        <ele>241.5</ele>
        <time>2011-08-31T08:33:49Z</time>
      </trkpt>
      <trkpt lat="45.28305" lon="5.55766">
        <ele>252.5</ele>
        <time>2011-08-31T08:33:51Z</time>
      </trkpt>
      <trkpt lat="45.28308" lon="5.55779">
        <ele>254.5</ele>
        <time>2011-08-31T08:33:52Z</time>
      </trkpt>
      <trkpt lat="45.28313" lon="5.5579">
        <ele>254</ele>
        <time>2011-08-31T08:33:53Z</time>
      </trkpt>
      <trkpt lat="45.28318" lon="5.558">
        <ele>251.8</ele>
        <time>2011-08-31T08:33:54Z</time>
      </trkpt>
      <trkpt lat="45.28322" lon="5.5581">
        <ele>250.2</ele>
        <time>2011-08-31T08:33:55Z</time>
      </trkpt>
      <trkpt lat="45.28326" lon="5.5582">
        <ele>250</ele>
        <time>2011-08-31T08:33:56Z</time>
      </trkpt>
      <trkpt lat="45.2833" lon="5.55831">
        <ele>249.6</ele>
        <time>2011-08-31T08:33:57Z</time>
      </trkpt>
      <trkpt lat="45.28335" lon="5.55841">
        <ele>249.1</ele>
        <time>2011-08-31T08:33:58Z</time>
      </trkpt>
      <trkpt lat="45.28339" lon="5.55851">
        <ele>249.3</ele>
        <time>2011-08-31T08:33:59Z</time>
      </trkpt>
      <trkpt lat="45.28343" lon="5.5586">
        <ele>247.9</ele>
        <time>2011-08-31T08:34:00Z</time>
      </trkpt>
      <trkpt lat="45.28347" lon="5.55868">
        <ele>245.1</ele>
        <time>2011-08-31T08:34:01Z</time>
      </trkpt>
      <trkpt lat="45.28351" lon="5.55877">
        <ele>244</ele>
        <time>2011-08-31T08:34:02Z</time>
      </trkpt>
      <trkpt lat="45.28355" lon="5.55885">
        <ele>244.7</ele>
        <time>2011-08-31T08:34:03Z</time>
      </trkpt>
      <trkpt lat="45.2836" lon="5.55893">
        <ele>244.9</ele>
        <time>2011-08-31T08:34:04Z</time>
      </trkpt>
      <trkpt lat="45.28364" lon="5.559">
        <ele>245.5</ele>
        <time>2011-08-31T08:34:05Z</time>
      </trkpt>
      <trkpt lat="45.28368" lon="5.55908">
        <ele>246.2</ele>
        <time>2011-08-31T08:34:06Z</time>
      </trkpt>
      <trkpt lat="45.28372" lon="5.55915">
        <ele>245.4</ele>
        <time>2011-08-31T08:34:07Z</time>
      </trkpt>
      <trkpt lat="45.28375" lon="5.55921">
        <ele>244.9</ele>
        <time>2011-08-31T08:34:08Z</time>
      </trkpt>
      <trkpt lat="45.28378" lon="5.55927">
        <ele>244.3</ele>
        <time>2011-08-31T08:34:09Z</time>
      </trkpt>
      <trkpt lat="45.2838" lon="5.55933">
        <ele>243.7</ele>
        <time>2011-08-31T08:34:10Z</time>
      </trkpt>
      <trkpt lat="45.28383" lon="5.55939">
        <ele>242.8</ele>
        <time>2011-08-31T08:34:11Z</time>
      </trkpt>
      <trkpt lat="45.28386" lon="5.55945">
        <ele>243</ele>
        <time>2011-08-31T08:34:12Z</time>
      </trkpt>
      <trkpt lat="45.28389" lon="5.55951">
        <ele>243.2</ele>
        <time>2011-08-31T08:34:13Z</time>
      </trkpt>
      <trkpt lat="45.28392" lon="5.55959">
        <ele>243.1</ele>
        <time>2011-08-31T08:34:14Z</time>
      </trkpt>
      <trkpt lat="45.28395" lon="5.55966">
        <ele>242.5</ele>
        <time>2011-08-31T08:34:15Z</time>
      </trkpt>
      <trkpt lat="45.28398" lon="5.55974">
        <ele>242.9</ele>
        <time>2011-08-31T08:34:16Z</time>
      </trkpt>
      <trkpt lat="45.28402" lon="5.55982">
        <ele>242.8</ele>
        <time>2011-08-31T08:34:17Z</time>
      </trkpt>
      <trkpt lat="45.28405" lon="5.55989">
        <ele>242.5</ele>
        <time>2011-08-31T08:34:18Z</time>
      </trkpt>
      <trkpt lat="45.28407" lon="5.55997">
        <ele>242.4</ele>
        <time>2011-08-31T08:34:19Z</time>
      </trkpt>
      <trkpt lat="45.2841" lon="5.56004">
        <ele>242.7</ele>
        <time>2011-08-31T08:34:20Z</time>
      </trkpt>
      <trkpt lat="45.28414" lon="5.5601">
        <ele>243</ele>
        <time>2011-08-31T08:34:21Z</time>
      </trkpt>
      <trkpt lat="45.28418" lon="5.56014">
        <ele>243.3</ele>
        <time>2011-08-31T08:34:22Z</time>
      </trkpt>
      <trkpt lat="45.28423" lon="5.56013">
        <ele>243</ele>
        <time>2011-08-31T08:34:23Z</time>
      </trkpt>
      <trkpt lat="45.28428" lon="5.56009">
        <ele>242.7</ele>
        <time>2011-08-31T08:34:24Z</time>
      </trkpt>
      <trkpt lat="45.28432" lon="5.56003">
        <ele>242.7</ele>
        <time>2011-08-31T08:34:25Z</time>
      </trkpt>
      <trkpt lat="45.28436" lon="5.55997">
        <ele>242.3</ele>
        <time>2011-08-31T08:34:26Z</time>
      </trkpt>
      <trkpt lat="45.2844" lon="5.55991">
        <ele>242.1</ele>
        <time>2011-08-31T08:34:27Z</time>
      </trkpt>
      <trkpt lat="45.28444" lon="5.55986">
        <ele>242</ele>
        <time>2011-08-31T08:34:28Z</time>
      </trkpt>
      <trkpt lat="45.28449" lon="5.55981">
        <ele>241.6</ele>
        <time>2011-08-31T08:34:29Z</time>
      </trkpt>
      <trkpt lat="45.28454" lon="5.55975">
        <ele>241.4</ele>
        <time>2011-08-31T08:34:30Z</time>
      </trkpt>
      <trkpt lat="45.28458" lon="5.5597">
        <ele>241.4</ele>
        <time>2011-08-31T08:34:31Z</time>
      </trkpt>
      <trkpt lat="45.28463" lon="5.55964">
        <ele>241.2</ele>
        <time>2011-08-31T08:34:32Z</time>
      </trkpt>
      <trkpt lat="45.28468" lon="5.55957">
        <ele>241.2</ele>
        <time>2011-08-31T08:34:33Z</time>
      </trkpt>
      <trkpt lat="45.28472" lon="5.55951">
        <ele>241.3</ele>
        <time>2011-08-31T08:34:34Z</time>
      </trkpt>
      <trkpt lat="45.28477" lon="5.55946">
        <ele>241.2</ele>
        <time>2011-08-31T08:34:35Z</time>
      </trkpt>
      <trkpt lat="45.28481" lon="5.5594">
        <ele>241.1</ele>
        <time>2011-08-31T08:34:36Z</time>
      </trkpt>
      <trkpt lat="45.28486" lon="5.55934">
        <ele>241.2</ele>
        <time>2011-08-31T08:34:37Z</time>
      </trkpt>
      <trkpt lat="45.2849" lon="5.55929">
        <ele>241.4</ele>
        <time>2011-08-31T08:34:38Z</time>
      </trkpt>
      <trkpt lat="45.28495" lon="5.55924">
        <ele>241.2</ele>
        <time>2011-08-31T08:34:39Z</time>
      </trkpt>
      <trkpt lat="45.28499" lon="5.55918">
        <ele>241.3</ele>
        <time>2011-08-31T08:34:40Z</time>
      </trkpt>
      <trkpt lat="45.28504" lon="5.55912">
        <ele>241.5</ele>
        <time>2011-08-31T08:34:41Z</time>
      </trkpt>
      <trkpt lat="45.28508" lon="5.55907">
        <ele>241.5</ele>
        <time>2011-08-31T08:34:42Z</time>
      </trkpt>
      <trkpt lat="45.28513" lon="5.55902">
        <ele>241.6</ele>
        <time>2011-08-31T08:34:43Z</time>
      </trkpt>
      <trkpt lat="45.28517" lon="5.55897">
        <ele>241.5</ele>
        <time>2011-08-31T08:34:44Z</time>
      </trkpt>
      <trkpt lat="45.28522" lon="5.55892">
        <ele>241.2</ele>
        <time>2011-08-31T08:34:45Z</time>
      </trkpt>
      <trkpt lat="45.28527" lon="5.55887">
        <ele>241.2</ele>
        <time>2011-08-31T08:34:46Z</time>
      </trkpt>
      <trkpt lat="45.28531" lon="5.55881">
        <ele>241.1</ele>
        <time>2011-08-31T08:34:47Z</time>
      </trkpt>
      <trkpt lat="45.28535" lon="5.55875">
        <ele>241.1</ele>
        <time>2011-08-31T08:34:48Z</time>
      </trkpt>
      <trkpt lat="45.2854" lon="5.5587">
        <ele>241.1</ele>
        <time>2011-08-31T08:34:49Z</time>
      </trkpt>
      <trkpt lat="45.28545" lon="5.55865">
        <ele>241.2</ele>
        <time>2011-08-31T08:34:50Z</time>
      </trkpt>
      <trkpt lat="45.2855" lon="5.5586">
        <ele>241.1</ele>
        <time>2011-08-31T08:34:51Z</time>
      </trkpt>
      <trkpt lat="45.28554" lon="5.55854">
        <ele>240.7</ele>
        <time>2011-08-31T08:34:52Z</time>
      </trkpt>
      <trkpt lat="45.28559" lon="5.55849">
        <ele>240.6</ele>
        <time>2011-08-31T08:34:53Z</time>
      </trkpt>
      <trkpt lat="45.28564" lon="5.55844">
        <ele>240.3</ele>
        <time>2011-08-31T08:34:54Z</time>
      </trkpt>
      <trkpt lat="45.28569" lon="5.55838">
        <ele>240.6</ele>
        <time>2011-08-31T08:34:55Z</time>
      </trkpt>
      <trkpt lat="45.28574" lon="5.55833">
        <ele>240.5</ele>
        <time>2011-08-31T08:34:56Z</time>
      </trkpt>
      <trkpt lat="45.28579" lon="5.55828">
        <ele>240.5</ele>
        <time>2011-08-31T08:34:57Z</time>
      </trkpt>
      <trkpt lat="45.28583" lon="5.55822">
        <ele>240.3</ele>
        <time>2011-08-31T08:34:58Z</time>
      </trkpt>
      <trkpt lat="45.28588" lon="5.55817">
        <ele>240.4</ele>
        <time>2011-08-31T08:34:59Z</time>
      </trkpt>
      <trkpt lat="45.28593" lon="5.55812">
        <ele>240.1</ele>
        <time>2011-08-31T08:35:00Z</time>
      </trkpt>
      <trkpt lat="45.28597" lon="5.55807">
        <ele>240</ele>
        <time>2011-08-31T08:35:01Z</time>
      </trkpt>
      <trkpt lat="45.28602" lon="5.55803">
        <ele>240</ele>
        <time>2011-08-31T08:35:02Z</time>
      </trkpt>
      <trkpt lat="45.28607" lon="5.55798">
        <ele>239.9</ele>
        <time>2011-08-31T08:35:03Z</time>
      </trkpt>
      <trkpt lat="45.28611" lon="5.55793">
        <ele>239.8</ele>
        <time>2011-08-31T08:35:04Z</time>
      </trkpt>
      <trkpt lat="45.28615" lon="5.55789">
        <ele>239.9</ele>
        <time>2011-08-31T08:35:05Z</time>
      </trkpt>
      <trkpt lat="45.28622" lon="5.55787">
        <ele>239.4</ele>
        <time>2011-08-31T08:35:07Z</time>
      </trkpt>
    </trkseg>
  </trk>
</gpx>